<?xml version='1.0' encoding='UTF-8'?><gpx version="1.1" creator="JPX - https://github.com/jenetics/jpx" xmlns="http://www.topografix.com/GPX/1/1"><trk><trkseg><trkpt lat="45.1450893" lon="10.7954319"><ele>23.0</ele><time>2026-03-29T16:25:27.774Z</time></trkpt><trkpt lat="45.1450169" lon="10.7954398"><ele>23.0</ele><time>2026-03-29T16:25:30.774Z</time></trkpt><trkpt lat="45.1449463" lon="10.7954398"><ele>23.0</ele><time>2026-03-29T16:25:33.775Z</time></trkpt><trkpt lat="45.1448765" lon="10.7954539"><ele>23.0</ele><time>2026-03-29T16:25:37.776Z</time></trkpt><trkpt lat="45.1448074" lon="10.7954313"><ele>23.0</ele><time>2026-03-29T16:25:53.776Z</time></trkpt><trkpt lat="45.144783" lon="10.7953371"><ele>23.0</ele><time>2026-03-29T16:26:17.774Z</time></trkpt><trkpt lat="45.1447163" lon="10.7952884"><ele>23.0</ele><time>2026-03-29T16:26:19.773Z</time></trkpt><trkpt lat="45.1446513" lon="10.7952394"><ele>22.571428571428573</ele><time>2026-03-29T16:26:21.775Z</time></trkpt><trkpt lat="45.1445863" lon="10.7951745"><ele>22.142857142857142</ele><time>2026-03-29T16:26:23.774Z</time></trkpt><trkpt lat="45.1445234" lon="10.7951142"><ele>21.714285714285715</ele><time>2026-03-29T16:26:25.773Z</time></trkpt><trkpt lat="45.1444575" lon="10.7950784"><ele>21.285714285714285</ele><time>2026-03-29T16:26:27.775Z</time></trkpt><trkpt lat="45.1443928" lon="10.7950428"><ele>20.857142857142858</ele><time>2026-03-29T16:26:29.775Z</time></trkpt><trkpt lat="45.1443364" lon="10.7950015"><ele>20.428571428571427</ele><time>2026-03-29T16:26:31.775Z</time></trkpt><trkpt lat="45.1442645" lon="10.7949609"><ele>20.0</ele><time>2026-03-29T16:26:33.776Z</time></trkpt><trkpt lat="45.1441813" lon="10.7949365"><ele>19.833333333333336</ele><time>2026-03-29T16:26:35.775Z</time></trkpt><trkpt lat="45.1440898" lon="10.79493"><ele>19.666666666666668</ele><time>2026-03-29T16:26:37.776Z</time></trkpt><trkpt lat="45.1439927" lon="10.7949177"><ele>19.5</ele><time>2026-03-29T16:26:39.775Z</time></trkpt><trkpt lat="45.1439098" lon="10.7948852"><ele>19.333333333333332</ele><time>2026-03-29T16:26:41.775Z</time></trkpt><trkpt lat="45.1438267" lon="10.79491"><ele>19.166666666666664</ele><time>2026-03-29T16:26:44.775Z</time></trkpt><trkpt lat="45.1437583" lon="10.7949709"><ele>19.0</ele><time>2026-03-29T16:26:46.775Z</time></trkpt><trkpt lat="45.1436713" lon="10.7950485"><ele>19.0</ele><time>2026-03-29T16:26:48.775Z</time></trkpt><trkpt lat="45.1435937" lon="10.7951319"><ele>19.0</ele><time>2026-03-29T16:26:50.776Z</time></trkpt><trkpt lat="45.1434992" lon="10.7952438"><ele>19.0</ele><time>2026-03-29T16:26:52.774Z</time></trkpt><trkpt lat="45.1434041" lon="10.7953472"><ele>19.0</ele><time>2026-03-29T16:26:54.776Z</time></trkpt><trkpt lat="45.1433145" lon="10.7954299"><ele>19.0</ele><time>2026-03-29T16:26:56.776Z</time></trkpt><trkpt lat="45.1432448" lon="10.7954968"><ele>19.4</ele><time>2026-03-29T16:26:58.774Z</time></trkpt><trkpt lat="45.1431705" lon="10.795596"><ele>19.799999999999997</ele><time>2026-03-29T16:27:00.776Z</time></trkpt><trkpt lat="45.1430705" lon="10.7956777"><ele>20.200000000000003</ele><time>2026-03-29T16:27:02.776Z</time></trkpt><trkpt lat="45.1429881" lon="10.7957516"><ele>20.6</ele><time>2026-03-29T16:27:04.775Z</time></trkpt><trkpt lat="45.1429084" lon="10.7958484"><ele>21.0</ele><time>2026-03-29T16:27:06.775Z</time></trkpt><trkpt lat="45.1428162" lon="10.79594"><ele>20.400000000000002</ele><time>2026-03-29T16:27:08.775Z</time></trkpt><trkpt lat="45.1427369" lon="10.7960365"><ele>19.8</ele><time>2026-03-29T16:27:10.774Z</time></trkpt><trkpt lat="45.1426486" lon="10.7961326"><ele>19.200000000000003</ele><time>2026-03-29T16:27:12.776Z</time></trkpt><trkpt lat="45.1425523" lon="10.7962291"><ele>18.6</ele><time>2026-03-29T16:27:14.776Z</time></trkpt><trkpt lat="45.1424686" lon="10.7963246"><ele>18.0</ele><time>2026-03-29T16:27:16.775Z</time></trkpt><trkpt lat="45.1423802" lon="10.7964284"><ele>17.8</ele><time>2026-03-29T16:27:18.773Z</time></trkpt><trkpt lat="45.1422958" lon="10.7965196"><ele>17.6</ele><time>2026-03-29T16:27:20.775Z</time></trkpt><trkpt lat="45.1422092" lon="10.796612"><ele>17.4</ele><time>2026-03-29T16:27:22.774Z</time></trkpt><trkpt lat="45.1421142" lon="10.7967005"><ele>17.2</ele><time>2026-03-29T16:27:24.775Z</time></trkpt><trkpt lat="45.1420353" lon="10.7968058"><ele>17.0</ele><time>2026-03-29T16:27:26.775Z</time></trkpt><trkpt lat="45.1419577" lon="10.7969092"><ele>16.6</ele><time>2026-03-29T16:27:28.775Z</time></trkpt><trkpt lat="45.1419073" lon="10.7970346"><ele>16.2</ele><time>2026-03-29T16:27:30.775Z</time></trkpt><trkpt lat="45.141855" lon="10.7971619"><ele>15.8</ele><time>2026-03-29T16:27:32.776Z</time></trkpt><trkpt lat="45.1418279" lon="10.797243"><ele>15.4</ele><time>2026-03-29T16:27:34.522Z</time></trkpt><trkpt lat="45.1417901" lon="10.7973622"><ele>15.0</ele><time>2026-03-29T16:27:35.776Z</time></trkpt><trkpt lat="45.1417363" lon="10.7974967"><ele>15.0</ele><time>2026-03-29T16:27:37.776Z</time></trkpt><trkpt lat="45.1416795" lon="10.7976226"><ele>15.0</ele><time>2026-03-29T16:27:39.775Z</time></trkpt><trkpt lat="45.1416124" lon="10.7977373"><ele>15.0</ele><time>2026-03-29T16:27:41.776Z</time></trkpt><trkpt lat="45.1415425" lon="10.7978409"><ele>15.0</ele><time>2026-03-29T16:27:43.776Z</time></trkpt><trkpt lat="45.1414612" lon="10.7979351"><ele>15.0</ele><time>2026-03-29T16:27:45.775Z</time></trkpt><trkpt lat="45.1413702" lon="10.7980068"><ele>15.6</ele><time>2026-03-29T16:27:47.775Z</time></trkpt><trkpt lat="45.1412723" lon="10.7980688"><ele>16.2</ele><time>2026-03-29T16:27:49.775Z</time></trkpt><trkpt lat="45.1411713" lon="10.7981188"><ele>16.8</ele><time>2026-03-29T16:27:51.776Z</time></trkpt><trkpt lat="45.1410743" lon="10.7981616"><ele>17.4</ele><time>2026-03-29T16:27:53.775Z</time></trkpt><trkpt lat="45.1409705" lon="10.7982018"><ele>18.0</ele><time>2026-03-29T16:27:55.774Z</time></trkpt><trkpt lat="45.1408714" lon="10.7982466"><ele>18.0</ele><time>2026-03-29T16:27:57.775Z</time></trkpt><trkpt lat="45.1407685" lon="10.7982874"><ele>18.0</ele><time>2026-03-29T16:27:59.774Z</time></trkpt><trkpt lat="45.1406717" lon="10.7983292"><ele>18.0</ele><time>2026-03-29T16:28:01.775Z</time></trkpt><trkpt lat="45.1405742" lon="10.7983758"><ele>18.0</ele><time>2026-03-29T16:28:03.775Z</time></trkpt><trkpt lat="45.1404863" lon="10.798421"><ele>18.0</ele><time>2026-03-29T16:28:05.775Z</time></trkpt><trkpt lat="45.1403978" lon="10.7984694"><ele>18.0</ele><time>2026-03-29T16:28:07.776Z</time></trkpt><trkpt lat="45.1403172" lon="10.798538"><ele>18.0</ele><time>2026-03-29T16:28:09.774Z</time></trkpt><trkpt lat="45.140229" lon="10.7986094"><ele>18.0</ele><time>2026-03-29T16:28:11.773Z</time></trkpt><trkpt lat="45.1401448" lon="10.7986873"><ele>18.0</ele><time>2026-03-29T16:28:13.775Z</time></trkpt><trkpt lat="45.1400603" lon="10.798766"><ele>18.0</ele><time>2026-03-29T16:28:15.775Z</time></trkpt><trkpt lat="45.1399763" lon="10.7988413"><ele>18.0</ele><time>2026-03-29T16:28:17.775Z</time></trkpt><trkpt lat="45.1398947" lon="10.7989222"><ele>18.0</ele><time>2026-03-29T16:28:19.775Z</time></trkpt><trkpt lat="45.1398006" lon="10.7989987"><ele>18.0</ele><time>2026-03-29T16:28:21.775Z</time></trkpt><trkpt lat="45.1397221" lon="10.7990746"><ele>18.0</ele><time>2026-03-29T16:28:23.776Z</time></trkpt><trkpt lat="45.1396434" lon="10.7991598"><ele>18.0</ele><time>2026-03-29T16:28:25.774Z</time></trkpt><trkpt lat="45.1395647" lon="10.7992446"><ele>18.0</ele><time>2026-03-29T16:28:27.776Z</time></trkpt><trkpt lat="45.1394924" lon="10.7993284"><ele>18.0</ele><time>2026-03-29T16:28:29.775Z</time></trkpt><trkpt lat="45.1394176" lon="10.7994312"><ele>18.0</ele><time>2026-03-29T16:28:31.775Z</time></trkpt><trkpt lat="45.1393532" lon="10.7995264"><ele>18.0</ele><time>2026-03-29T16:28:33.775Z</time></trkpt><trkpt lat="45.1392765" lon="10.7996221"><ele>18.0</ele><time>2026-03-29T16:28:35.775Z</time></trkpt><trkpt lat="45.1391993" lon="10.7997261"><ele>18.0</ele><time>2026-03-29T16:28:37.775Z</time></trkpt><trkpt lat="45.1391309" lon="10.7998317"><ele>18.0</ele><time>2026-03-29T16:28:39.774Z</time></trkpt><trkpt lat="45.1390642" lon="10.7999389"><ele>18.0</ele><time>2026-03-29T16:28:41.775Z</time></trkpt><trkpt lat="45.139" lon="10.8000417"><ele>18.0</ele><time>2026-03-29T16:28:43.775Z</time></trkpt><trkpt lat="45.1389223" lon="10.800148"><ele>18.0</ele><time>2026-03-29T16:28:45.776Z</time></trkpt><trkpt lat="45.1388582" lon="10.8002329"><ele>18.4</ele><time>2026-03-29T16:28:47.774Z</time></trkpt><trkpt lat="45.1387864" lon="10.8003436"><ele>18.8</ele><time>2026-03-29T16:28:49.775Z</time></trkpt><trkpt lat="45.1387204" lon="10.8004209"><ele>19.2</ele><time>2026-03-29T16:28:51.776Z</time></trkpt><trkpt lat="45.138658" lon="10.8005225"><ele>19.6</ele><time>2026-03-29T16:28:53.775Z</time></trkpt><trkpt lat="45.1385929" lon="10.8006156"><ele>20.0</ele><time>2026-03-29T16:28:55.775Z</time></trkpt><trkpt lat="45.1385217" lon="10.8007092"><ele>20.0</ele><time>2026-03-29T16:28:57.775Z</time></trkpt><trkpt lat="45.1384549" lon="10.8008086"><ele>20.0</ele><time>2026-03-29T16:28:59.776Z</time></trkpt><trkpt lat="45.138384" lon="10.8009061"><ele>20.0</ele><time>2026-03-29T16:29:01.774Z</time></trkpt><trkpt lat="45.1383212" lon="10.8010013"><ele>20.0</ele><time>2026-03-29T16:29:03.776Z</time></trkpt><trkpt lat="45.138259" lon="10.8010953"><ele>20.0</ele><time>2026-03-29T16:29:05.776Z</time></trkpt><trkpt lat="45.1381872" lon="10.8012052"><ele>19.4</ele><time>2026-03-29T16:29:07.776Z</time></trkpt><trkpt lat="45.138121" lon="10.8013082"><ele>18.8</ele><time>2026-03-29T16:29:09.776Z</time></trkpt><trkpt lat="45.1380528" lon="10.8014078"><ele>18.2</ele><time>2026-03-29T16:29:11.775Z</time></trkpt><trkpt lat="45.1379872" lon="10.8015024"><ele>17.6</ele><time>2026-03-29T16:29:13.776Z</time></trkpt><trkpt lat="45.1379213" lon="10.8016015"><ele>17.0</ele><time>2026-03-29T16:29:15.774Z</time></trkpt><trkpt lat="45.1378521" lon="10.8016949"><ele>17.0</ele><time>2026-03-29T16:29:17.774Z</time></trkpt><trkpt lat="45.1377823" lon="10.8017918"><ele>17.0</ele><time>2026-03-29T16:29:19.774Z</time></trkpt><trkpt lat="45.1377194" lon="10.8018844"><ele>17.0</ele><time>2026-03-29T16:29:21.775Z</time></trkpt><trkpt lat="45.1376432" lon="10.8019909"><ele>17.0</ele><time>2026-03-29T16:29:23.776Z</time></trkpt><trkpt lat="45.1375764" lon="10.8020993"><ele>17.0</ele><time>2026-03-29T16:29:25.775Z</time></trkpt><trkpt lat="45.1375137" lon="10.8021971"><ele>17.0</ele><time>2026-03-29T16:29:27.774Z</time></trkpt><trkpt lat="45.137445" lon="10.8023028"><ele>17.0</ele><time>2026-03-29T16:29:29.776Z</time></trkpt><trkpt lat="45.1373655" lon="10.8024043"><ele>17.0</ele><time>2026-03-29T16:29:31.774Z</time></trkpt><trkpt lat="45.1372998" lon="10.8025025"><ele>17.0</ele><time>2026-03-29T16:29:33.775Z</time></trkpt><trkpt lat="45.1372273" lon="10.8026044"><ele>17.0</ele><time>2026-03-29T16:29:35.774Z</time></trkpt><trkpt lat="45.1371728" lon="10.8027218"><ele>17.2</ele><time>2026-03-29T16:29:37.775Z</time></trkpt><trkpt lat="45.1371188" lon="10.8028174"><ele>17.4</ele><time>2026-03-29T16:29:39.774Z</time></trkpt><trkpt lat="45.1370616" lon="10.8029302"><ele>17.6</ele><time>2026-03-29T16:29:41.775Z</time></trkpt><trkpt lat="45.1369816" lon="10.803041"><ele>17.8</ele><time>2026-03-29T16:29:43.776Z</time></trkpt><trkpt lat="45.1369122" lon="10.8031585"><ele>18.0</ele><time>2026-03-29T16:29:45.774Z</time></trkpt><trkpt lat="45.1368421" lon="10.8032693"><ele>18.0</ele><time>2026-03-29T16:29:47.774Z</time></trkpt><trkpt lat="45.1367734" lon="10.8033637"><ele>18.0</ele><time>2026-03-29T16:29:49.775Z</time></trkpt><trkpt lat="45.1367127" lon="10.8034718"><ele>18.0</ele><time>2026-03-29T16:29:51.776Z</time></trkpt><trkpt lat="45.1366403" lon="10.8035794"><ele>18.0</ele><time>2026-03-29T16:29:53.775Z</time></trkpt><trkpt lat="45.1365698" lon="10.8036892"><ele>18.0</ele><time>2026-03-29T16:29:55.775Z</time></trkpt><trkpt lat="45.1365053" lon="10.8037787"><ele>17.833333333333332</ele><time>2026-03-29T16:29:57.774Z</time></trkpt><trkpt lat="45.1364334" lon="10.8038793"><ele>17.666666666666668</ele><time>2026-03-29T16:29:59.775Z</time></trkpt><trkpt lat="45.1363757" lon="10.8039721"><ele>17.5</ele><time>2026-03-29T16:30:01.775Z</time></trkpt><trkpt lat="45.1363259" lon="10.804056"><ele>17.333333333333336</ele><time>2026-03-29T16:30:03.775Z</time></trkpt><trkpt lat="45.1362665" lon="10.8041528"><ele>17.166666666666668</ele><time>2026-03-29T16:30:05.775Z</time></trkpt><trkpt lat="45.1362185" lon="10.8042411"><ele>17.0</ele><time>2026-03-29T16:30:07.775Z</time></trkpt><trkpt lat="45.1361656" lon="10.8043351"><ele>17.0</ele><time>2026-03-29T16:30:09.774Z</time></trkpt><trkpt lat="45.1361124" lon="10.8044328"><ele>17.0</ele><time>2026-03-29T16:30:11.774Z</time></trkpt><trkpt lat="45.1360501" lon="10.8045098"><ele>17.0</ele><time>2026-03-29T16:30:13.776Z</time></trkpt><trkpt lat="45.1359871" lon="10.8045896"><ele>17.0</ele><time>2026-03-29T16:30:15.775Z</time></trkpt><trkpt lat="45.1359359" lon="10.8046669"><ele>17.0</ele><time>2026-03-29T16:30:17.774Z</time></trkpt><trkpt lat="45.1358882" lon="10.8047436"><ele>17.0</ele><time>2026-03-29T16:30:19.775Z</time></trkpt><trkpt lat="45.1358335" lon="10.804814"><ele>17.0</ele><time>2026-03-29T16:30:21.775Z</time></trkpt><trkpt lat="45.1357821" lon="10.804897"><ele>17.0</ele><time>2026-03-29T16:30:23.774Z</time></trkpt><trkpt lat="45.1357251" lon="10.8049736"><ele>17.0</ele><time>2026-03-29T16:30:25.775Z</time></trkpt><trkpt lat="45.1356681" lon="10.805054"><ele>17.0</ele><time>2026-03-29T16:30:27.775Z</time></trkpt><trkpt lat="45.1356119" lon="10.8051437"><ele>17.0</ele><time>2026-03-29T16:30:29.775Z</time></trkpt><trkpt lat="45.1355527" lon="10.8052367"><ele>17.0</ele><time>2026-03-29T16:30:31.775Z</time></trkpt><trkpt lat="45.1354954" lon="10.8053328"><ele>17.333333333333336</ele><time>2026-03-29T16:30:33.774Z</time></trkpt><trkpt lat="45.1354372" lon="10.8054263"><ele>17.666666666666668</ele><time>2026-03-29T16:30:35.775Z</time></trkpt><trkpt lat="45.1353827" lon="10.8055111"><ele>18.0</ele><time>2026-03-29T16:30:37.775Z</time></trkpt><trkpt lat="45.1353274" lon="10.805589"><ele>18.333333333333332</ele><time>2026-03-29T16:30:39.775Z</time></trkpt><trkpt lat="45.1352762" lon="10.8056695"><ele>18.666666666666664</ele><time>2026-03-29T16:30:41.775Z</time></trkpt><trkpt lat="45.1352234" lon="10.8057535"><ele>19.0</ele><time>2026-03-29T16:30:43.774Z</time></trkpt><trkpt lat="45.1351683" lon="10.8058383"><ele>19.0</ele><time>2026-03-29T16:30:45.774Z</time></trkpt><trkpt lat="45.1351118" lon="10.8059259"><ele>19.0</ele><time>2026-03-29T16:30:47.775Z</time></trkpt><trkpt lat="45.1350585" lon="10.8060158"><ele>19.0</ele><time>2026-03-29T16:30:49.774Z</time></trkpt><trkpt lat="45.1350101" lon="10.8061123"><ele>19.0</ele><time>2026-03-29T16:30:51.775Z</time></trkpt><trkpt lat="45.1349575" lon="10.8062068"><ele>19.0</ele><time>2026-03-29T16:30:53.776Z</time></trkpt><trkpt lat="45.1349015" lon="10.8062948"><ele>19.0</ele><time>2026-03-29T16:30:55.774Z</time></trkpt><trkpt lat="45.1348442" lon="10.806377"><ele>19.0</ele><time>2026-03-29T16:30:57.775Z</time></trkpt><trkpt lat="45.1347996" lon="10.8064718"><ele>19.0</ele><time>2026-03-29T16:30:59.774Z</time></trkpt><trkpt lat="45.1347464" lon="10.8065606"><ele>19.0</ele><time>2026-03-29T16:31:01.775Z</time></trkpt><trkpt lat="45.134697" lon="10.8066487"><ele>19.0</ele><time>2026-03-29T16:31:03.774Z</time></trkpt><trkpt lat="45.1346438" lon="10.8067392"><ele>19.0</ele><time>2026-03-29T16:31:05.775Z</time></trkpt><trkpt lat="45.1345856" lon="10.8068334"><ele>19.0</ele><time>2026-03-29T16:31:07.774Z</time></trkpt><trkpt lat="45.1345275" lon="10.8069328"><ele>19.0</ele><time>2026-03-29T16:31:09.775Z</time></trkpt><trkpt lat="45.1344691" lon="10.8070367"><ele>19.0</ele><time>2026-03-29T16:31:11.775Z</time></trkpt><trkpt lat="45.1344118" lon="10.8071298"><ele>19.0</ele><time>2026-03-29T16:31:13.774Z</time></trkpt><trkpt lat="45.134345" lon="10.8072185"><ele>19.0</ele><time>2026-03-29T16:31:15.775Z</time></trkpt><trkpt lat="45.1342899" lon="10.8073166"><ele>19.0</ele><time>2026-03-29T16:31:17.775Z</time></trkpt><trkpt lat="45.1342237" lon="10.8074366"><ele>19.0</ele><time>2026-03-29T16:31:20.694Z</time></trkpt><trkpt lat="45.1341517" lon="10.8075564"><ele>19.0</ele><time>2026-03-29T16:31:22.776Z</time></trkpt><trkpt lat="45.1340977" lon="10.8076368"><ele>19.0</ele><time>2026-03-29T16:31:24.775Z</time></trkpt><trkpt lat="45.1340483" lon="10.8077168"><ele>19.0</ele><time>2026-03-29T16:31:26.776Z</time></trkpt><trkpt lat="45.1339963" lon="10.8078004"><ele>19.0</ele><time>2026-03-29T16:31:28.775Z</time></trkpt><trkpt lat="45.1339448" lon="10.8078905"><ele>19.0</ele><time>2026-03-29T16:31:30.776Z</time></trkpt><trkpt lat="45.1338895" lon="10.807977"><ele>19.166666666666664</ele><time>2026-03-29T16:31:32.774Z</time></trkpt><trkpt lat="45.1338398" lon="10.8080643"><ele>19.333333333333332</ele><time>2026-03-29T16:31:34.775Z</time></trkpt><trkpt lat="45.1337873" lon="10.8081487"><ele>19.5</ele><time>2026-03-29T16:31:36.774Z</time></trkpt><trkpt lat="45.1337378" lon="10.8082357"><ele>19.666666666666668</ele><time>2026-03-29T16:31:38.774Z</time></trkpt><trkpt lat="45.1336868" lon="10.8083185"><ele>19.833333333333336</ele><time>2026-03-29T16:31:40.776Z</time></trkpt><trkpt lat="45.1336326" lon="10.8083985"><ele>20.0</ele><time>2026-03-29T16:31:42.774Z</time></trkpt><trkpt lat="45.1335813" lon="10.808479"><ele>19.833333333333336</ele><time>2026-03-29T16:31:44.776Z</time></trkpt><trkpt lat="45.1335315" lon="10.808564"><ele>19.666666666666668</ele><time>2026-03-29T16:31:46.775Z</time></trkpt><trkpt lat="45.1334829" lon="10.8086451"><ele>19.5</ele><time>2026-03-29T16:31:48.774Z</time></trkpt><trkpt lat="45.1334327" lon="10.8087252"><ele>19.333333333333332</ele><time>2026-03-29T16:31:50.776Z</time></trkpt><trkpt lat="45.1333824" lon="10.8088047"><ele>19.166666666666664</ele><time>2026-03-29T16:31:52.776Z</time></trkpt><trkpt lat="45.1333264" lon="10.8088762"><ele>19.0</ele><time>2026-03-29T16:31:54.775Z</time></trkpt><trkpt lat="45.1332717" lon="10.8089446"><ele>19.142857142857142</ele><time>2026-03-29T16:31:56.775Z</time></trkpt><trkpt lat="45.133218" lon="10.8090067"><ele>19.28571428571429</ele><time>2026-03-29T16:31:58.776Z</time></trkpt><trkpt lat="45.1331632" lon="10.8090715"><ele>19.42857142857143</ele><time>2026-03-29T16:32:00.775Z</time></trkpt><trkpt lat="45.1331134" lon="10.8091294"><ele>19.57142857142857</ele><time>2026-03-29T16:32:02.776Z</time></trkpt><trkpt lat="45.1330518" lon="10.8091943"><ele>19.714285714285715</ele><time>2026-03-29T16:32:04.776Z</time></trkpt><trkpt lat="45.1329871" lon="10.8092432"><ele>19.857142857142858</ele><time>2026-03-29T16:32:06.776Z</time></trkpt><trkpt lat="45.1329239" lon="10.8092873"><ele>20.0</ele><time>2026-03-29T16:32:08.775Z</time></trkpt><trkpt lat="45.1328638" lon="10.8093162"><ele>19.428571428571427</ele><time>2026-03-29T16:32:10.774Z</time></trkpt><trkpt lat="45.1328008" lon="10.8093534"><ele>18.857142857142858</ele><time>2026-03-29T16:32:12.774Z</time></trkpt><trkpt lat="45.1327395" lon="10.8093913"><ele>18.285714285714285</ele><time>2026-03-29T16:32:14.775Z</time></trkpt><trkpt lat="45.132674" lon="10.8094328"><ele>17.714285714285715</ele><time>2026-03-29T16:32:16.774Z</time></trkpt><trkpt lat="45.1326093" lon="10.8094839"><ele>17.142857142857142</ele><time>2026-03-29T16:32:18.775Z</time></trkpt><trkpt lat="45.1325462" lon="10.8095327"><ele>16.57142857142857</ele><time>2026-03-29T16:32:20.776Z</time></trkpt><trkpt lat="45.1324738" lon="10.8096095"><ele>16.0</ele><time>2026-03-29T16:32:23.775Z</time></trkpt><trkpt lat="45.1324361" lon="10.8096982"><ele>15.999999999999998</ele><time>2026-03-29T16:32:26.775Z</time></trkpt><trkpt lat="45.1323955" lon="10.8097906"><ele>16.0</ele><time>2026-03-29T16:32:29.774Z</time></trkpt><trkpt lat="45.1323581" lon="10.8098631"><ele>16.0</ele><time>2026-03-29T16:32:31.774Z</time></trkpt><trkpt lat="45.1323104" lon="10.809947"><ele>16.0</ele><time>2026-03-29T16:32:33.775Z</time></trkpt><trkpt lat="45.13225" lon="10.8100313"><ele>15.999999999999998</ele><time>2026-03-29T16:32:35.776Z</time></trkpt><trkpt lat="45.1321593" lon="10.8101121"><ele>16.0</ele><time>2026-03-29T16:32:37.773Z</time></trkpt><trkpt lat="45.1320649" lon="10.810185"><ele>16.400000000000002</ele><time>2026-03-29T16:32:39.774Z</time></trkpt><trkpt lat="45.1319876" lon="10.8102676"><ele>16.8</ele><time>2026-03-29T16:32:41.775Z</time></trkpt><trkpt lat="45.1319092" lon="10.8103536"><ele>17.200000000000003</ele><time>2026-03-29T16:32:43.774Z</time></trkpt><trkpt lat="45.1318531" lon="10.8104175"><ele>17.6</ele><time>2026-03-29T16:32:45.775Z</time></trkpt><trkpt lat="45.1317934" lon="10.8105175"><ele>18.0</ele><time>2026-03-29T16:32:48.775Z</time></trkpt><trkpt lat="45.131763" lon="10.8106364"><ele>18.0</ele><time>2026-03-29T16:32:51.776Z</time></trkpt><trkpt lat="45.1317604" lon="10.8107272"><ele>18.0</ele><time>2026-03-29T16:32:53.774Z</time></trkpt><trkpt lat="45.1317513" lon="10.8108255"><ele>18.0</ele><time>2026-03-29T16:32:55.775Z</time></trkpt><trkpt lat="45.1317437" lon="10.8109376"><ele>18.0</ele><time>2026-03-29T16:32:57.776Z</time></trkpt><trkpt lat="45.1317296" lon="10.8110475"><ele>18.0</ele><time>2026-03-29T16:32:59.775Z</time></trkpt><trkpt lat="45.131724" lon="10.8111411"><ele>18.0</ele><time>2026-03-29T16:33:01.774Z</time></trkpt><trkpt lat="45.1317281" lon="10.811273"><ele>18.000000000000004</ele><time>2026-03-29T16:33:04.775Z</time></trkpt><trkpt lat="45.1317572" lon="10.811375"><ele>18.0</ele><time>2026-03-29T16:33:06.774Z</time></trkpt><trkpt lat="45.1317872" lon="10.8114765"><ele>18.0</ele><time>2026-03-29T16:33:08.775Z</time></trkpt><trkpt lat="45.1318102" lon="10.8115733"><ele>18.0</ele><time>2026-03-29T16:33:10.776Z</time></trkpt><trkpt lat="45.1318219" lon="10.8116707"><ele>18.0</ele><time>2026-03-29T16:33:12.776Z</time></trkpt><trkpt lat="45.1318311" lon="10.8117652"><ele>18.000000000000004</ele><time>2026-03-29T16:33:14.775Z</time></trkpt><trkpt lat="45.1318413" lon="10.8118628"><ele>18.0</ele><time>2026-03-29T16:33:16.775Z</time></trkpt><trkpt lat="45.1318449" lon="10.811962"><ele>18.0</ele><time>2026-03-29T16:33:18.774Z</time></trkpt><trkpt lat="45.1318408" lon="10.8120935"><ele>18.0</ele><time>2026-03-29T16:33:21.775Z</time></trkpt><trkpt lat="45.1318332" lon="10.8121892"><ele>18.0</ele><time>2026-03-29T16:33:23.775Z</time></trkpt><trkpt lat="45.1318078" lon="10.8123184"><ele>18.0</ele><time>2026-03-29T16:33:26.774Z</time></trkpt><trkpt lat="45.1317873" lon="10.812436"><ele>18.0</ele><time>2026-03-29T16:33:28.774Z</time></trkpt><trkpt lat="45.1317662" lon="10.8125508"><ele>18.0</ele><time>2026-03-29T16:33:30.775Z</time></trkpt><trkpt lat="45.1317494" lon="10.8126616"><ele>18.0</ele><time>2026-03-29T16:33:32.775Z</time></trkpt><trkpt lat="45.1317398" lon="10.8127672"><ele>18.0</ele><time>2026-03-29T16:33:34.775Z</time></trkpt><trkpt lat="45.1317301" lon="10.8129037"><ele>18.0</ele><time>2026-03-29T16:33:37.775Z</time></trkpt><trkpt lat="45.1317174" lon="10.8130044"><ele>18.0</ele><time>2026-03-29T16:33:39.775Z</time></trkpt><trkpt lat="45.131713" lon="10.8130983"><ele>18.0</ele><time>2026-03-29T16:33:41.776Z</time></trkpt><trkpt lat="45.1317005" lon="10.8132338"><ele>18.0</ele><time>2026-03-29T16:33:44.774Z</time></trkpt><trkpt lat="45.1316934" lon="10.8133363"><ele>18.000000000000004</ele><time>2026-03-29T16:33:46.775Z</time></trkpt><trkpt lat="45.1316791" lon="10.8134614"><ele>18.0</ele><time>2026-03-29T16:33:49.775Z</time></trkpt><trkpt lat="45.1316591" lon="10.8135477"><ele>18.0</ele><time>2026-03-29T16:33:51.774Z</time></trkpt><trkpt lat="45.1316301" lon="10.8136378"><ele>18.0</ele><time>2026-03-29T16:33:53.774Z</time></trkpt><trkpt lat="45.1315922" lon="10.8137155"><ele>18.0</ele><time>2026-03-29T16:33:55.775Z</time></trkpt><trkpt lat="45.1315454" lon="10.8137835"><ele>18.000000000000004</ele><time>2026-03-29T16:33:57.773Z</time></trkpt><trkpt lat="45.1315002" lon="10.8138579"><ele>18.0</ele><time>2026-03-29T16:33:59.776Z</time></trkpt><trkpt lat="45.1314478" lon="10.8139579"><ele>18.0</ele><time>2026-03-29T16:34:02.775Z</time></trkpt><trkpt lat="45.1314262" lon="10.8140642"><ele>18.0</ele><time>2026-03-29T16:34:04.774Z</time></trkpt><trkpt lat="45.1314035" lon="10.8141588"><ele>18.0</ele><time>2026-03-29T16:34:06.773Z</time></trkpt><trkpt lat="45.1313649" lon="10.8142382"><ele>18.0</ele><time>2026-03-29T16:34:08.776Z</time></trkpt><trkpt lat="45.1312962" lon="10.8143598"><ele>18.0</ele><time>2026-03-29T16:34:12.773Z</time></trkpt><trkpt lat="45.1312451" lon="10.8144164"><ele>18.0</ele><time>2026-03-29T16:34:15.776Z</time></trkpt><trkpt lat="45.1311931" lon="10.8144944"><ele>18.0</ele><time>2026-03-29T16:34:18.774Z</time></trkpt><trkpt lat="45.1311435" lon="10.8145652"><ele>18.0</ele><time>2026-03-29T16:34:21.775Z</time></trkpt><trkpt lat="45.1310928" lon="10.8146496"><ele>18.0</ele><time>2026-03-29T16:34:24.775Z</time></trkpt><trkpt lat="45.1310374" lon="10.8147518"><ele>18.0</ele><time>2026-03-29T16:34:27.774Z</time></trkpt><trkpt lat="45.131005" lon="10.8148526"><ele>18.0</ele><time>2026-03-29T16:34:29.775Z</time></trkpt><trkpt lat="45.1309773" lon="10.814953"><ele>18.0</ele><time>2026-03-29T16:34:31.774Z</time></trkpt><trkpt lat="45.130953" lon="10.8150417"><ele>18.000000000000004</ele><time>2026-03-29T16:34:33.776Z</time></trkpt><trkpt lat="45.1309139" lon="10.8151524"><ele>18.0</ele><time>2026-03-29T16:34:36.775Z</time></trkpt><trkpt lat="45.1309024" lon="10.815246"><ele>18.0</ele><time>2026-03-29T16:34:38.775Z</time></trkpt><trkpt lat="45.1308994" lon="10.8153363"><ele>18.0</ele><time>2026-03-29T16:34:40.775Z</time></trkpt><trkpt lat="45.130881" lon="10.8154304"><ele>18.0</ele><time>2026-03-29T16:34:42.776Z</time></trkpt><trkpt lat="45.1308451" lon="10.8155498"><ele>18.000000000000004</ele><time>2026-03-29T16:34:45.774Z</time></trkpt><trkpt lat="45.1308202" lon="10.8156422"><ele>18.0</ele><time>2026-03-29T16:34:47.776Z</time></trkpt><trkpt lat="45.1307857" lon="10.8157576"><ele>18.333333333333332</ele><time>2026-03-29T16:34:50.773Z</time></trkpt><trkpt lat="45.1307511" lon="10.8158483"><ele>18.666666666666668</ele><time>2026-03-29T16:34:53.773Z</time></trkpt><trkpt lat="45.1307086" lon="10.8159542"><ele>19.0</ele><time>2026-03-29T16:35:05.774Z</time></trkpt><trkpt lat="45.1306603" lon="10.8160525"><ele>19.333333333333336</ele><time>2026-03-29T16:35:08.775Z</time></trkpt><trkpt lat="45.1306095" lon="10.8161518"><ele>19.666666666666668</ele><time>2026-03-29T16:35:11.773Z</time></trkpt><trkpt lat="45.1305755" lon="10.8162407"><ele>20.0</ele><time>2026-03-29T16:35:14.774Z</time></trkpt><trkpt lat="45.1305527" lon="10.8163345"><ele>20.0</ele><time>2026-03-29T16:35:17.776Z</time></trkpt><trkpt lat="45.1305424" lon="10.816449"><ele>20.0</ele><time>2026-03-29T16:35:21.774Z</time></trkpt><trkpt lat="45.1305016" lon="10.8165294"><ele>20.0</ele><time>2026-03-29T16:35:24.775Z</time></trkpt><trkpt lat="45.1304611" lon="10.8166024"><ele>20.0</ele><time>2026-03-29T16:35:27.774Z</time></trkpt><trkpt lat="45.1304067" lon="10.8166809"><ele>20.0</ele><time>2026-03-29T16:35:31.775Z</time></trkpt><trkpt lat="45.1303529" lon="10.8167452"><ele>20.0</ele><time>2026-03-29T16:35:35.774Z</time></trkpt><trkpt lat="45.130317" lon="10.8168193"><ele>20.0</ele><time>2026-03-29T16:35:38.775Z</time></trkpt><trkpt lat="45.1302692" lon="10.816897"><ele>20.0</ele><time>2026-03-29T16:35:41.776Z</time></trkpt><trkpt lat="45.1302286" lon="10.8169668"><ele>20.0</ele><time>2026-03-29T16:35:44.775Z</time></trkpt><trkpt lat="45.1301911" lon="10.8170618"><ele>20.0</ele><time>2026-03-29T16:35:47.774Z</time></trkpt><trkpt lat="45.1301468" lon="10.8171599"><ele>20.0</ele><time>2026-03-29T16:35:50.775Z</time></trkpt><trkpt lat="45.1301075" lon="10.8172299"><ele>20.0</ele><time>2026-03-29T16:35:52.775Z</time></trkpt><trkpt lat="45.1300677" lon="10.8172992"><ele>20.0</ele><time>2026-03-29T16:35:54.774Z</time></trkpt><trkpt lat="45.1300285" lon="10.8173773"><ele>20.0</ele><time>2026-03-29T16:35:56.774Z</time></trkpt><trkpt lat="45.129998" lon="10.8174587"><ele>20.0</ele><time>2026-03-29T16:35:58.774Z</time></trkpt><trkpt lat="45.1299685" lon="10.8175528"><ele>20.0</ele><time>2026-03-29T16:36:00.775Z</time></trkpt><trkpt lat="45.1299481" lon="10.8176564"><ele>20.0</ele><time>2026-03-29T16:36:02.774Z</time></trkpt><trkpt lat="45.1299245" lon="10.8177685"><ele>20.0</ele><time>2026-03-29T16:36:04.775Z</time></trkpt><trkpt lat="45.1299032" lon="10.8178731"><ele>20.0</ele><time>2026-03-29T16:36:06.774Z</time></trkpt><trkpt lat="45.1298849" lon="10.8179858"><ele>20.0</ele><time>2026-03-29T16:36:08.774Z</time></trkpt><trkpt lat="45.1298608" lon="10.8180936"><ele>19.666666666666668</ele><time>2026-03-29T16:36:10.775Z</time></trkpt><trkpt lat="45.1298375" lon="10.8182033"><ele>19.333333333333336</ele><time>2026-03-29T16:36:12.774Z</time></trkpt><trkpt lat="45.1298176" lon="10.8183159"><ele>19.0</ele><time>2026-03-29T16:36:14.775Z</time></trkpt><trkpt lat="45.1297994" lon="10.818431"><ele>18.666666666666668</ele><time>2026-03-29T16:36:16.775Z</time></trkpt><trkpt lat="45.1297805" lon="10.8185491"><ele>18.333333333333332</ele><time>2026-03-29T16:36:18.774Z</time></trkpt><trkpt lat="45.1297532" lon="10.8186658"><ele>18.0</ele><time>2026-03-29T16:36:20.775Z</time></trkpt><trkpt lat="45.1297279" lon="10.8187793"><ele>18.0</ele><time>2026-03-29T16:36:22.775Z</time></trkpt><trkpt lat="45.1297039" lon="10.818893"><ele>18.0</ele><time>2026-03-29T16:36:24.776Z</time></trkpt><trkpt lat="45.1296835" lon="10.8190122"><ele>18.0</ele><time>2026-03-29T16:36:26.775Z</time></trkpt><trkpt lat="45.1296605" lon="10.8191325"><ele>18.0</ele><time>2026-03-29T16:36:28.775Z</time></trkpt><trkpt lat="45.129639" lon="10.8192506"><ele>18.0</ele><time>2026-03-29T16:36:30.775Z</time></trkpt><trkpt lat="45.1296173" lon="10.8193677"><ele>18.0</ele><time>2026-03-29T16:36:32.776Z</time></trkpt><trkpt lat="45.1295961" lon="10.8194846"><ele>18.0</ele><time>2026-03-29T16:36:34.774Z</time></trkpt><trkpt lat="45.1295698" lon="10.8195951"><ele>18.0</ele><time>2026-03-29T16:36:36.775Z</time></trkpt><trkpt lat="45.1295467" lon="10.8197109"><ele>18.0</ele><time>2026-03-29T16:36:38.775Z</time></trkpt><trkpt lat="45.1295248" lon="10.8198269"><ele>18.0</ele><time>2026-03-29T16:36:40.776Z</time></trkpt><trkpt lat="45.1294993" lon="10.8199448"><ele>18.0</ele><time>2026-03-29T16:36:42.775Z</time></trkpt><trkpt lat="45.1294726" lon="10.8200655"><ele>18.0</ele><time>2026-03-29T16:36:44.775Z</time></trkpt><trkpt lat="45.1294425" lon="10.8201857"><ele>17.666666666666668</ele><time>2026-03-29T16:36:46.776Z</time></trkpt><trkpt lat="45.1294118" lon="10.8203016"><ele>17.333333333333332</ele><time>2026-03-29T16:36:48.774Z</time></trkpt><trkpt lat="45.1293852" lon="10.8204166"><ele>17.0</ele><time>2026-03-29T16:36:50.775Z</time></trkpt><trkpt lat="45.1293596" lon="10.8205324"><ele>16.666666666666664</ele><time>2026-03-29T16:36:52.774Z</time></trkpt><trkpt lat="45.1293367" lon="10.8206434"><ele>16.333333333333332</ele><time>2026-03-29T16:36:54.775Z</time></trkpt><trkpt lat="45.129312" lon="10.8207513"><ele>16.0</ele><time>2026-03-29T16:36:56.774Z</time></trkpt><trkpt lat="45.1292828" lon="10.8208573"><ele>15.999999999999998</ele><time>2026-03-29T16:36:58.776Z</time></trkpt><trkpt lat="45.1292549" lon="10.8209659"><ele>16.0</ele><time>2026-03-29T16:37:00.776Z</time></trkpt><trkpt lat="45.1292209" lon="10.8210668"><ele>16.0</ele><time>2026-03-29T16:37:02.775Z</time></trkpt><trkpt lat="45.1291985" lon="10.8211683"><ele>16.0</ele><time>2026-03-29T16:37:04.774Z</time></trkpt><trkpt lat="45.1291755" lon="10.8212706"><ele>15.999999999999998</ele><time>2026-03-29T16:37:06.775Z</time></trkpt><trkpt lat="45.1291482" lon="10.8213767"><ele>16.0</ele><time>2026-03-29T16:37:08.776Z</time></trkpt><trkpt lat="45.1291224" lon="10.8214812"><ele>15.999999999999998</ele><time>2026-03-29T16:37:10.774Z</time></trkpt><trkpt lat="45.129096" lon="10.8215844"><ele>16.0</ele><time>2026-03-29T16:37:12.776Z</time></trkpt><trkpt lat="45.1290734" lon="10.8216892"><ele>16.0</ele><time>2026-03-29T16:37:14.775Z</time></trkpt><trkpt lat="45.1290493" lon="10.8217916"><ele>16.0</ele><time>2026-03-29T16:37:16.776Z</time></trkpt><trkpt lat="45.1290212" lon="10.821889"><ele>15.999999999999998</ele><time>2026-03-29T16:37:18.775Z</time></trkpt><trkpt lat="45.1289943" lon="10.8219871"><ele>16.0</ele><time>2026-03-29T16:37:20.775Z</time></trkpt><trkpt lat="45.1289631" lon="10.8220839"><ele>16.285714285714285</ele><time>2026-03-29T16:37:22.775Z</time></trkpt><trkpt lat="45.1289327" lon="10.8221854"><ele>16.57142857142857</ele><time>2026-03-29T16:37:24.775Z</time></trkpt><trkpt lat="45.1289086" lon="10.8222844"><ele>16.857142857142858</ele><time>2026-03-29T16:37:26.775Z</time></trkpt><trkpt lat="45.128888" lon="10.8223824"><ele>17.142857142857142</ele><time>2026-03-29T16:37:28.776Z</time></trkpt><trkpt lat="45.1288641" lon="10.8224805"><ele>17.42857142857143</ele><time>2026-03-29T16:37:30.776Z</time></trkpt><trkpt lat="45.1288492" lon="10.8225835"><ele>17.714285714285715</ele><time>2026-03-29T16:37:32.774Z</time></trkpt><trkpt lat="45.1288289" lon="10.8226891"><ele>18.0</ele><time>2026-03-29T16:37:34.774Z</time></trkpt><trkpt lat="45.128802" lon="10.8227929"><ele>18.166666666666668</ele><time>2026-03-29T16:37:36.775Z</time></trkpt><trkpt lat="45.1287757" lon="10.8228974"><ele>18.333333333333332</ele><time>2026-03-29T16:37:38.775Z</time></trkpt><trkpt lat="45.1287408" lon="10.8229941"><ele>18.5</ele><time>2026-03-29T16:37:40.773Z</time></trkpt><trkpt lat="45.1287053" lon="10.8230917"><ele>18.666666666666664</ele><time>2026-03-29T16:37:42.775Z</time></trkpt><trkpt lat="45.1286683" lon="10.823186"><ele>18.833333333333332</ele><time>2026-03-29T16:37:44.774Z</time></trkpt><trkpt lat="45.1286314" lon="10.8232785"><ele>19.0</ele><time>2026-03-29T16:37:46.774Z</time></trkpt><trkpt lat="45.1285952" lon="10.8233732"><ele>19.0</ele><time>2026-03-29T16:37:48.773Z</time></trkpt><trkpt lat="45.128563" lon="10.8234675"><ele>19.0</ele><time>2026-03-29T16:37:50.775Z</time></trkpt><trkpt lat="45.1285278" lon="10.8235596"><ele>19.0</ele><time>2026-03-29T16:37:52.773Z</time></trkpt><trkpt lat="45.1284962" lon="10.8236478"><ele>19.0</ele><time>2026-03-29T16:37:54.775Z</time></trkpt><trkpt lat="45.1284637" lon="10.8237269"><ele>19.0</ele><time>2026-03-29T16:37:56.775Z</time></trkpt><trkpt lat="45.1284339" lon="10.8238092"><ele>19.0</ele><time>2026-03-29T16:37:58.773Z</time></trkpt><trkpt lat="45.1283937" lon="10.8238899"><ele>19.0</ele><time>2026-03-29T16:38:01.775Z</time></trkpt><trkpt lat="45.1283268" lon="10.8239393"><ele>19.0</ele><time>2026-03-29T16:38:22.774Z</time></trkpt><trkpt lat="45.128244" lon="10.8238783"><ele>19.0</ele><time>2026-03-29T16:38:25.775Z</time></trkpt><trkpt lat="45.128166" lon="10.8238275"><ele>19.0</ele><time>2026-03-29T16:38:27.774Z</time></trkpt><trkpt lat="45.1280761" lon="10.8237764"><ele>19.0</ele><time>2026-03-29T16:38:29.775Z</time></trkpt><trkpt lat="45.1279785" lon="10.8237247"><ele>19.0</ele><time>2026-03-29T16:38:31.776Z</time></trkpt><trkpt lat="45.1278742" lon="10.8236636"><ele>19.0</ele><time>2026-03-29T16:38:33.775Z</time></trkpt><trkpt lat="45.1277763" lon="10.8236039"><ele>19.0</ele><time>2026-03-29T16:38:35.774Z</time></trkpt><trkpt lat="45.127672" lon="10.8235364"><ele>19.0</ele><time>2026-03-29T16:38:37.773Z</time></trkpt><trkpt lat="45.1275677" lon="10.823477"><ele>19.0</ele><time>2026-03-29T16:38:39.775Z</time></trkpt><trkpt lat="45.1274682" lon="10.8234192"><ele>19.0</ele><time>2026-03-29T16:38:41.775Z</time></trkpt><trkpt lat="45.1273675" lon="10.8233755"><ele>18.8</ele><time>2026-03-29T16:38:43.775Z</time></trkpt><trkpt lat="45.1272645" lon="10.82335"><ele>18.599999999999998</ele><time>2026-03-29T16:38:45.774Z</time></trkpt><trkpt lat="45.1271697" lon="10.8233191"><ele>18.4</ele><time>2026-03-29T16:38:47.774Z</time></trkpt><trkpt lat="45.1270787" lon="10.8233068"><ele>18.2</ele><time>2026-03-29T16:38:49.775Z</time></trkpt><trkpt lat="45.126994" lon="10.8232997"><ele>18.0</ele><time>2026-03-29T16:38:51.775Z</time></trkpt><trkpt lat="45.1269157" lon="10.8233002"><ele>18.0</ele><time>2026-03-29T16:38:53.775Z</time></trkpt><trkpt lat="45.1268402" lon="10.8233145"><ele>18.0</ele><time>2026-03-29T16:38:55.774Z</time></trkpt><trkpt lat="45.1267692" lon="10.8233246"><ele>18.0</ele><time>2026-03-29T16:38:57.775Z</time></trkpt><trkpt lat="45.1266998" lon="10.8233388"><ele>18.0</ele><time>2026-03-29T16:38:59.776Z</time></trkpt><trkpt lat="45.1265569" lon="10.8233941"><ele>18.0</ele><time>2026-03-29T16:39:03.775Z</time></trkpt><trkpt lat="45.1264815" lon="10.8234278"><ele>18.0</ele><time>2026-03-29T16:39:05.776Z</time></trkpt><trkpt lat="45.1263615" lon="10.8235002"><ele>18.166666666666668</ele><time>2026-03-29T16:39:09.224Z</time></trkpt><trkpt lat="45.1262658" lon="10.8235501"><ele>18.333333333333332</ele><time>2026-03-29T16:39:11.78Z</time></trkpt><trkpt lat="45.1261851" lon="10.8235852"><ele>18.5</ele><time>2026-03-29T16:39:13.776Z</time></trkpt><trkpt lat="45.1261076" lon="10.8236281"><ele>18.666666666666664</ele><time>2026-03-29T16:39:15.778Z</time></trkpt><trkpt lat="45.12603" lon="10.8236761"><ele>18.833333333333332</ele><time>2026-03-29T16:39:17.772Z</time></trkpt><trkpt lat="45.1259511" lon="10.8237186"><ele>19.0</ele><time>2026-03-29T16:39:19.778Z</time></trkpt><trkpt lat="45.1258755" lon="10.8237654"><ele>19.0</ele><time>2026-03-29T16:39:21.771Z</time></trkpt><trkpt lat="45.1257997" lon="10.8238086"><ele>19.0</ele><time>2026-03-29T16:39:23.78Z</time></trkpt><trkpt lat="45.1257223" lon="10.8238477"><ele>19.0</ele><time>2026-03-29T16:39:25.778Z</time></trkpt><trkpt lat="45.1256494" lon="10.823894"><ele>19.0</ele><time>2026-03-29T16:39:27.77Z</time></trkpt><trkpt lat="45.1255744" lon="10.823932"><ele>19.0</ele><time>2026-03-29T16:39:29.78Z</time></trkpt><trkpt lat="45.1255019" lon="10.8239678"><ele>19.0</ele><time>2026-03-29T16:39:31.778Z</time></trkpt><trkpt lat="45.1254274" lon="10.8239931"><ele>19.333333333333332</ele><time>2026-03-29T16:39:33.772Z</time></trkpt><trkpt lat="45.1253519" lon="10.8240009"><ele>19.666666666666664</ele><time>2026-03-29T16:39:35.776Z</time></trkpt><trkpt lat="45.1252757" lon="10.8239934"><ele>20.0</ele><time>2026-03-29T16:39:37.769Z</time></trkpt><trkpt lat="45.1251968" lon="10.8239753"><ele>20.333333333333332</ele><time>2026-03-29T16:39:39.773Z</time></trkpt><trkpt lat="45.1251184" lon="10.8239514"><ele>20.666666666666668</ele><time>2026-03-29T16:39:41.773Z</time></trkpt><trkpt lat="45.1250397" lon="10.8239236"><ele>21.0</ele><time>2026-03-29T16:39:43.773Z</time></trkpt><trkpt lat="45.1249623" lon="10.8238858"><ele>20.666666666666668</ele><time>2026-03-29T16:39:45.77Z</time></trkpt><trkpt lat="45.1248832" lon="10.8238497"><ele>20.333333333333332</ele><time>2026-03-29T16:39:47.775Z</time></trkpt><trkpt lat="45.1248017" lon="10.8238163"><ele>20.0</ele><time>2026-03-29T16:39:49.771Z</time></trkpt><trkpt lat="45.1247215" lon="10.8237745"><ele>19.666666666666664</ele><time>2026-03-29T16:39:51.779Z</time></trkpt><trkpt lat="45.1246422" lon="10.8237291"><ele>19.333333333333332</ele><time>2026-03-29T16:39:53.774Z</time></trkpt><trkpt lat="45.124566" lon="10.8236757"><ele>19.0</ele><time>2026-03-29T16:39:55.772Z</time></trkpt><trkpt lat="45.124486" lon="10.8236324"><ele>19.0</ele><time>2026-03-29T16:39:57.769Z</time></trkpt><trkpt lat="45.1244063" lon="10.8235864"><ele>19.0</ele><time>2026-03-29T16:39:59.778Z</time></trkpt><trkpt lat="45.1243263" lon="10.8235405"><ele>19.0</ele><time>2026-03-29T16:40:01.777Z</time></trkpt><trkpt lat="45.1242458" lon="10.8234932"><ele>19.0</ele><time>2026-03-29T16:40:03.779Z</time></trkpt><trkpt lat="45.1241674" lon="10.8234392"><ele>19.0</ele><time>2026-03-29T16:40:05.78Z</time></trkpt><trkpt lat="45.1240859" lon="10.8233915"><ele>19.0</ele><time>2026-03-29T16:40:07.771Z</time></trkpt><trkpt lat="45.1240057" lon="10.8233378"><ele>19.4</ele><time>2026-03-29T16:40:09.773Z</time></trkpt><trkpt lat="45.1239251" lon="10.823281"><ele>19.799999999999997</ele><time>2026-03-29T16:40:11.78Z</time></trkpt><trkpt lat="45.1238408" lon="10.8232287"><ele>20.200000000000003</ele><time>2026-03-29T16:40:13.772Z</time></trkpt><trkpt lat="45.1237585" lon="10.8231761"><ele>20.6</ele><time>2026-03-29T16:40:15.768Z</time></trkpt><trkpt lat="45.1236765" lon="10.8231173"><ele>21.0</ele><time>2026-03-29T16:40:17.769Z</time></trkpt><trkpt lat="45.1235931" lon="10.823058"><ele>21.0</ele><time>2026-03-29T16:40:19.771Z</time></trkpt><trkpt lat="45.1235098" lon="10.8230043"><ele>21.0</ele><time>2026-03-29T16:40:21.778Z</time></trkpt><trkpt lat="45.1234291" lon="10.8229474"><ele>21.0</ele><time>2026-03-29T16:40:23.769Z</time></trkpt><trkpt lat="45.123345" lon="10.8228894"><ele>21.0</ele><time>2026-03-29T16:40:25.77Z</time></trkpt><trkpt lat="45.1232586" lon="10.8228354"><ele>21.0</ele><time>2026-03-29T16:40:27.769Z</time></trkpt><trkpt lat="45.1231723" lon="10.8227814"><ele>20.8</ele><time>2026-03-29T16:40:29.775Z</time></trkpt><trkpt lat="45.1230881" lon="10.8227302"><ele>20.6</ele><time>2026-03-29T16:40:31.772Z</time></trkpt><trkpt lat="45.1229987" lon="10.8226701"><ele>20.4</ele><time>2026-03-29T16:40:33.769Z</time></trkpt><trkpt lat="45.1229118" lon="10.8226109"><ele>20.2</ele><time>2026-03-29T16:40:35.771Z</time></trkpt><trkpt lat="45.1228278" lon="10.8225562"><ele>20.0</ele><time>2026-03-29T16:40:37.775Z</time></trkpt><trkpt lat="45.1227437" lon="10.8225046"><ele>20.0</ele><time>2026-03-29T16:40:39.778Z</time></trkpt><trkpt lat="45.1226601" lon="10.8224484"><ele>20.0</ele><time>2026-03-29T16:40:41.772Z</time></trkpt><trkpt lat="45.1225755" lon="10.8223913"><ele>20.0</ele><time>2026-03-29T16:40:43.776Z</time></trkpt><trkpt lat="45.1224923" lon="10.822339"><ele>20.0</ele><time>2026-03-29T16:40:45.78Z</time></trkpt><trkpt lat="45.1224115" lon="10.8222729"><ele>20.0</ele><time>2026-03-29T16:40:47.777Z</time></trkpt><trkpt lat="45.1223298" lon="10.822211"><ele>20.0</ele><time>2026-03-29T16:40:49.772Z</time></trkpt><trkpt lat="45.1222504" lon="10.8221468"><ele>20.0</ele><time>2026-03-29T16:40:51.776Z</time></trkpt><trkpt lat="45.1221698" lon="10.8220858"><ele>20.0</ele><time>2026-03-29T16:40:53.773Z</time></trkpt><trkpt lat="45.1220876" lon="10.8220143"><ele>20.0</ele><time>2026-03-29T16:40:55.781Z</time></trkpt><trkpt lat="45.1220089" lon="10.8219419"><ele>20.0</ele><time>2026-03-29T16:40:57.777Z</time></trkpt><trkpt lat="45.1219313" lon="10.8218719"><ele>20.0</ele><time>2026-03-29T16:40:59.778Z</time></trkpt><trkpt lat="45.1218519" lon="10.8217996"><ele>20.0</ele><time>2026-03-29T16:41:01.774Z</time></trkpt><trkpt lat="45.1217736" lon="10.821727"><ele>20.0</ele><time>2026-03-29T16:41:03.773Z</time></trkpt><trkpt lat="45.121692" lon="10.8216572"><ele>20.0</ele><time>2026-03-29T16:41:05.776Z</time></trkpt><trkpt lat="45.1216086" lon="10.821585"><ele>20.0</ele><time>2026-03-29T16:41:07.775Z</time></trkpt><trkpt lat="45.1215274" lon="10.8215103"><ele>20.0</ele><time>2026-03-29T16:41:09.77Z</time></trkpt><trkpt lat="45.121447" lon="10.821433"><ele>20.0</ele><time>2026-03-29T16:41:11.773Z</time></trkpt><trkpt lat="45.1213651" lon="10.8213543"><ele>20.0</ele><time>2026-03-29T16:41:13.776Z</time></trkpt><trkpt lat="45.1212775" lon="10.8212836"><ele>20.0</ele><time>2026-03-29T16:41:15.778Z</time></trkpt><trkpt lat="45.1211937" lon="10.8212186"><ele>20.0</ele><time>2026-03-29T16:41:17.768Z</time></trkpt><trkpt lat="45.1211089" lon="10.8211462"><ele>20.0</ele><time>2026-03-29T16:41:19.773Z</time></trkpt><trkpt lat="45.1210276" lon="10.8210759"><ele>20.0</ele><time>2026-03-29T16:41:21.776Z</time></trkpt><trkpt lat="45.1209389" lon="10.8210127"><ele>20.0</ele><time>2026-03-29T16:41:23.78Z</time></trkpt><trkpt lat="45.1208521" lon="10.8209538"><ele>20.0</ele><time>2026-03-29T16:41:25.77Z</time></trkpt><trkpt lat="45.1207607" lon="10.8208995"><ele>20.0</ele><time>2026-03-29T16:41:27.78Z</time></trkpt><trkpt lat="45.1206698" lon="10.8208443"><ele>20.2</ele><time>2026-03-29T16:41:29.773Z</time></trkpt><trkpt lat="45.1205837" lon="10.820789"><ele>20.4</ele><time>2026-03-29T16:41:31.773Z</time></trkpt><trkpt lat="45.120493" lon="10.8207313"><ele>20.6</ele><time>2026-03-29T16:41:33.778Z</time></trkpt><trkpt lat="45.1204025" lon="10.8206746"><ele>20.8</ele><time>2026-03-29T16:41:35.772Z</time></trkpt><trkpt lat="45.1203165" lon="10.8206192"><ele>21.0</ele><time>2026-03-29T16:41:37.781Z</time></trkpt><trkpt lat="45.1202272" lon="10.8205652"><ele>21.0</ele><time>2026-03-29T16:41:39.772Z</time></trkpt><trkpt lat="45.1201389" lon="10.8205101"><ele>21.0</ele><time>2026-03-29T16:41:41.771Z</time></trkpt><trkpt lat="45.1200463" lon="10.8204505"><ele>21.0</ele><time>2026-03-29T16:41:43.781Z</time></trkpt><trkpt lat="45.119954" lon="10.8203912"><ele>21.0</ele><time>2026-03-29T16:41:45.775Z</time></trkpt><trkpt lat="45.11986" lon="10.820342"><ele>21.0</ele><time>2026-03-29T16:41:47.779Z</time></trkpt><trkpt lat="45.1197674" lon="10.8202848"><ele>21.0</ele><time>2026-03-29T16:41:49.77Z</time></trkpt><trkpt lat="45.1196714" lon="10.8202409"><ele>21.0</ele><time>2026-03-29T16:41:51.78Z</time></trkpt><trkpt lat="45.1195732" lon="10.820197"><ele>21.0</ele><time>2026-03-29T16:41:53.769Z</time></trkpt><trkpt lat="45.1194744" lon="10.8201602"><ele>21.0</ele><time>2026-03-29T16:41:55.775Z</time></trkpt><trkpt lat="45.1193726" lon="10.8201316"><ele>21.0</ele><time>2026-03-29T16:41:57.775Z</time></trkpt><trkpt lat="45.119271" lon="10.820115"><ele>21.0</ele><time>2026-03-29T16:41:59.78Z</time></trkpt><trkpt lat="45.1191635" lon="10.8201001"><ele>21.0</ele><time>2026-03-29T16:42:01.779Z</time></trkpt><trkpt lat="45.1190557" lon="10.8200881"><ele>21.0</ele><time>2026-03-29T16:42:03.781Z</time></trkpt><trkpt lat="45.1189495" lon="10.8200672"><ele>21.0</ele><time>2026-03-29T16:42:05.774Z</time></trkpt><trkpt lat="45.1188399" lon="10.8200456"><ele>21.0</ele><time>2026-03-29T16:42:07.776Z</time></trkpt><trkpt lat="45.1187311" lon="10.8200108"><ele>20.8</ele><time>2026-03-29T16:42:09.779Z</time></trkpt><trkpt lat="45.1186259" lon="10.819974"><ele>20.6</ele><time>2026-03-29T16:42:11.775Z</time></trkpt><trkpt lat="45.1185187" lon="10.8199316"><ele>20.4</ele><time>2026-03-29T16:42:13.775Z</time></trkpt><trkpt lat="45.1184141" lon="10.8198774"><ele>20.2</ele><time>2026-03-29T16:42:15.78Z</time></trkpt><trkpt lat="45.1183114" lon="10.8198283"><ele>20.0</ele><time>2026-03-29T16:42:17.775Z</time></trkpt><trkpt lat="45.1182065" lon="10.8197717"><ele>19.75</ele><time>2026-03-29T16:42:19.78Z</time></trkpt><trkpt lat="45.1181016" lon="10.8197114"><ele>19.5</ele><time>2026-03-29T16:42:21.778Z</time></trkpt><trkpt lat="45.1179974" lon="10.8196483"><ele>19.25</ele><time>2026-03-29T16:42:23.771Z</time></trkpt><trkpt lat="45.1178936" lon="10.8195873"><ele>19.0</ele><time>2026-03-29T16:42:25.78Z</time></trkpt><trkpt lat="45.1177927" lon="10.8195173"><ele>19.0</ele><time>2026-03-29T16:42:27.781Z</time></trkpt><trkpt lat="45.1176908" lon="10.8194494"><ele>19.0</ele><time>2026-03-29T16:42:29.768Z</time></trkpt><trkpt lat="45.1175933" lon="10.8193771"><ele>19.0</ele><time>2026-03-29T16:42:31.777Z</time></trkpt><trkpt lat="45.1174947" lon="10.8193041"><ele>19.0</ele><time>2026-03-29T16:42:33.773Z</time></trkpt><trkpt lat="45.117402" lon="10.8192287"><ele>19.0</ele><time>2026-03-29T16:42:35.768Z</time></trkpt><trkpt lat="45.117304" lon="10.8191511"><ele>19.4</ele><time>2026-03-29T16:42:37.775Z</time></trkpt><trkpt lat="45.1172067" lon="10.8190783"><ele>19.799999999999997</ele><time>2026-03-29T16:42:39.773Z</time></trkpt><trkpt lat="45.1171075" lon="10.8190075"><ele>20.200000000000003</ele><time>2026-03-29T16:42:41.775Z</time></trkpt><trkpt lat="45.1170098" lon="10.8189369"><ele>20.6</ele><time>2026-03-29T16:42:43.774Z</time></trkpt><trkpt lat="45.1169176" lon="10.8188722"><ele>21.0</ele><time>2026-03-29T16:42:45.777Z</time></trkpt><trkpt lat="45.1168242" lon="10.8188297"><ele>21.0</ele><time>2026-03-29T16:42:47.776Z</time></trkpt><trkpt lat="45.1167242" lon="10.8187815"><ele>21.0</ele><time>2026-03-29T16:42:49.77Z</time></trkpt><trkpt lat="45.1166219" lon="10.8187354"><ele>21.0</ele><time>2026-03-29T16:42:51.772Z</time></trkpt><trkpt lat="45.1165215" lon="10.8186917"><ele>21.0</ele><time>2026-03-29T16:42:53.773Z</time></trkpt><trkpt lat="45.1164189" lon="10.8186498"><ele>21.0</ele><time>2026-03-29T16:42:55.772Z</time></trkpt><trkpt lat="45.1163157" lon="10.8186001"><ele>21.0</ele><time>2026-03-29T16:42:57.768Z</time></trkpt><trkpt lat="45.1162112" lon="10.8185573"><ele>21.0</ele><time>2026-03-29T16:42:59.771Z</time></trkpt><trkpt lat="45.1161055" lon="10.8185165"><ele>21.0</ele><time>2026-03-29T16:43:01.771Z</time></trkpt><trkpt lat="45.1159999" lon="10.8184832"><ele>21.0</ele><time>2026-03-29T16:43:03.772Z</time></trkpt><trkpt lat="45.1157883" lon="10.818441"><ele>20.8</ele><time>2026-03-29T16:43:07.775Z</time></trkpt><trkpt lat="45.1156883" lon="10.8184149"><ele>20.6</ele><time>2026-03-29T16:43:09.775Z</time></trkpt><trkpt lat="45.1155835" lon="10.8184086"><ele>20.4</ele><time>2026-03-29T16:43:11.775Z</time></trkpt><trkpt lat="45.1154804" lon="10.8183916"><ele>20.2</ele><time>2026-03-29T16:43:13.776Z</time></trkpt><trkpt lat="45.1153733" lon="10.8183884"><ele>20.0</ele><time>2026-03-29T16:43:15.775Z</time></trkpt><trkpt lat="45.1152801" lon="10.8183834"><ele>20.0</ele><time>2026-03-29T16:43:17.775Z</time></trkpt><trkpt lat="45.1151828" lon="10.8183711"><ele>20.0</ele><time>2026-03-29T16:43:19.776Z</time></trkpt><trkpt lat="45.1150834" lon="10.8183648"><ele>20.0</ele><time>2026-03-29T16:43:21.776Z</time></trkpt><trkpt lat="45.1149859" lon="10.8183592"><ele>20.0</ele><time>2026-03-29T16:43:23.775Z</time></trkpt><trkpt lat="45.1148804" lon="10.818342"><ele>20.0</ele><time>2026-03-29T16:43:25.775Z</time></trkpt><trkpt lat="45.1147842" lon="10.8183434"><ele>20.25</ele><time>2026-03-29T16:43:27.776Z</time></trkpt><trkpt lat="45.1146878" lon="10.8183547"><ele>20.5</ele><time>2026-03-29T16:43:29.775Z</time></trkpt><trkpt lat="45.1145856" lon="10.818353"><ele>20.75</ele><time>2026-03-29T16:43:31.773Z</time></trkpt><trkpt lat="45.114497" lon="10.8183773"><ele>21.0</ele><time>2026-03-29T16:43:33.774Z</time></trkpt><trkpt lat="45.1142552" lon="10.8183591"><ele>21.0</ele><time>2026-03-29T16:43:38.773Z</time></trkpt><trkpt lat="45.1141573" lon="10.8183455"><ele>21.0</ele><time>2026-03-29T16:43:40.774Z</time></trkpt><trkpt lat="45.11407" lon="10.8183282"><ele>21.0</ele><time>2026-03-29T16:43:42.774Z</time></trkpt><trkpt lat="45.1139759" lon="10.8182978"><ele>21.0</ele><time>2026-03-29T16:43:44.774Z</time></trkpt><trkpt lat="45.1138766" lon="10.8182542"><ele>21.0</ele><time>2026-03-29T16:43:46.774Z</time></trkpt><trkpt lat="45.1137831" lon="10.8182049"><ele>21.200000000000003</ele><time>2026-03-29T16:43:48.773Z</time></trkpt><trkpt lat="45.1136868" lon="10.8181602"><ele>21.400000000000002</ele><time>2026-03-29T16:43:50.774Z</time></trkpt><trkpt lat="45.1135915" lon="10.8181217"><ele>21.6</ele><time>2026-03-29T16:43:52.774Z</time></trkpt><trkpt lat="45.1135004" lon="10.8180822"><ele>21.8</ele><time>2026-03-29T16:43:54.773Z</time></trkpt><trkpt lat="45.1134112" lon="10.8180596"><ele>22.0</ele><time>2026-03-29T16:43:56.776Z</time></trkpt><trkpt lat="45.1133244" lon="10.8180242"><ele>21.75</ele><time>2026-03-29T16:43:58.774Z</time></trkpt><trkpt lat="45.1132385" lon="10.8179727"><ele>21.5</ele><time>2026-03-29T16:44:00.775Z</time></trkpt><trkpt lat="45.1131283" lon="10.8179444"><ele>21.25</ele><time>2026-03-29T16:44:02.774Z</time></trkpt><trkpt lat="45.1130307" lon="10.8178858"><ele>21.0</ele><time>2026-03-29T16:44:04.773Z</time></trkpt><trkpt lat="45.1128938" lon="10.8177898"><ele>21.0</ele><time>2026-03-29T16:44:07.775Z</time></trkpt><trkpt lat="45.1128092" lon="10.8177279"><ele>21.0</ele><time>2026-03-29T16:44:09.776Z</time></trkpt><trkpt lat="45.1127194" lon="10.8176646"><ele>21.0</ele><time>2026-03-29T16:44:11.775Z</time></trkpt><trkpt lat="45.1126344" lon="10.8176014"><ele>21.0</ele><time>2026-03-29T16:44:13.776Z</time></trkpt><trkpt lat="45.1125514" lon="10.8175368"><ele>21.0</ele><time>2026-03-29T16:44:15.774Z</time></trkpt><trkpt lat="45.1124699" lon="10.8174726"><ele>20.666666666666668</ele><time>2026-03-29T16:44:17.776Z</time></trkpt><trkpt lat="45.112394" lon="10.8174"><ele>20.333333333333332</ele><time>2026-03-29T16:44:19.774Z</time></trkpt><trkpt lat="45.1123198" lon="10.8173449"><ele>20.0</ele><time>2026-03-29T16:44:21.775Z</time></trkpt><trkpt lat="45.1122423" lon="10.8172834"><ele>19.666666666666664</ele><time>2026-03-29T16:44:23.774Z</time></trkpt><trkpt lat="45.1121651" lon="10.8172223"><ele>19.333333333333332</ele><time>2026-03-29T16:44:25.775Z</time></trkpt><trkpt lat="45.112087" lon="10.8171594"><ele>19.0</ele><time>2026-03-29T16:44:27.774Z</time></trkpt><trkpt lat="45.1120213" lon="10.8170992"><ele>19.0</ele><time>2026-03-29T16:44:29.775Z</time></trkpt><trkpt lat="45.1119492" lon="10.8170542"><ele>19.0</ele><time>2026-03-29T16:44:31.775Z</time></trkpt><trkpt lat="45.1119071" lon="10.8169728"><ele>19.0</ele><time>2026-03-29T16:44:33.775Z</time></trkpt><trkpt lat="45.1119057" lon="10.8168654"><ele>19.0</ele><time>2026-03-29T16:44:35.775Z</time></trkpt><trkpt lat="45.1120019" lon="10.8167441"><ele>19.0</ele><time>2026-03-29T16:44:38.775Z</time></trkpt><trkpt lat="45.1120834" lon="10.816682"><ele>19.0</ele><time>2026-03-29T16:44:40.775Z</time></trkpt><trkpt lat="45.1121578" lon="10.8166099"><ele>19.166666666666664</ele><time>2026-03-29T16:44:42.775Z</time></trkpt><trkpt lat="45.1122301" lon="10.8165417"><ele>19.333333333333332</ele><time>2026-03-29T16:44:44.773Z</time></trkpt><trkpt lat="45.1123017" lon="10.8164761"><ele>19.5</ele><time>2026-03-29T16:44:46.775Z</time></trkpt><trkpt lat="45.1123645" lon="10.8164238"><ele>19.666666666666668</ele><time>2026-03-29T16:44:48.773Z</time></trkpt><trkpt lat="45.1124219" lon="10.8163871"><ele>19.833333333333336</ele><time>2026-03-29T16:44:50.775Z</time></trkpt><trkpt lat="45.1124804" lon="10.81632"><ele>20.0</ele><time>2026-03-29T16:44:52.774Z</time></trkpt><trkpt lat="45.1125472" lon="10.8162609"><ele>20.0</ele><time>2026-03-29T16:44:54.776Z</time></trkpt><trkpt lat="45.1126199" lon="10.8162113"><ele>20.0</ele><time>2026-03-29T16:44:56.774Z</time></trkpt><trkpt lat="45.1126887" lon="10.8161452"><ele>20.0</ele><time>2026-03-29T16:44:58.774Z</time></trkpt><trkpt lat="45.1127614" lon="10.81608"><ele>20.0</ele><time>2026-03-29T16:45:00.775Z</time></trkpt><trkpt lat="45.1128355" lon="10.8160154"><ele>20.0</ele><time>2026-03-29T16:45:02.774Z</time></trkpt><trkpt lat="45.112912" lon="10.8159409"><ele>20.0</ele><time>2026-03-29T16:45:04.775Z</time></trkpt><trkpt lat="45.1129781" lon="10.8158659"><ele>20.2</ele><time>2026-03-29T16:45:06.773Z</time></trkpt><trkpt lat="45.1130808" lon="10.8157375"><ele>20.4</ele><time>2026-03-29T16:45:09.774Z</time></trkpt><trkpt lat="45.1131384" lon="10.8156467"><ele>20.6</ele><time>2026-03-29T16:45:11.775Z</time></trkpt><trkpt lat="45.1131961" lon="10.815556"><ele>20.8</ele><time>2026-03-29T16:45:13.774Z</time></trkpt><trkpt lat="45.1132463" lon="10.815455"><ele>21.0</ele><time>2026-03-29T16:45:15.774Z</time></trkpt><trkpt lat="45.1132946" lon="10.8153568"><ele>21.0</ele><time>2026-03-29T16:45:17.774Z</time></trkpt><trkpt lat="45.1133334" lon="10.8152513"><ele>21.0</ele><time>2026-03-29T16:45:19.774Z</time></trkpt><trkpt lat="45.1133741" lon="10.815144"><ele>21.0</ele><time>2026-03-29T16:45:21.774Z</time></trkpt><trkpt lat="45.1134282" lon="10.8150483"><ele>21.0</ele><time>2026-03-29T16:45:23.774Z</time></trkpt><trkpt lat="45.1134771" lon="10.8149483"><ele>21.0</ele><time>2026-03-29T16:45:25.775Z</time></trkpt><trkpt lat="45.1135132" lon="10.8148507"><ele>21.0</ele><time>2026-03-29T16:45:27.774Z</time></trkpt><trkpt lat="45.1135452" lon="10.8147557"><ele>21.166666666666668</ele><time>2026-03-29T16:45:29.775Z</time></trkpt><trkpt lat="45.1135782" lon="10.8146659"><ele>21.333333333333332</ele><time>2026-03-29T16:45:31.775Z</time></trkpt><trkpt lat="45.1135546" lon="10.8145663"><ele>21.5</ele><time>2026-03-29T16:45:35.774Z</time></trkpt><trkpt lat="45.1134458" lon="10.8145234"><ele>21.666666666666664</ele><time>2026-03-29T16:45:39.775Z</time></trkpt><trkpt lat="45.113467" lon="10.8143874"><ele>21.833333333333332</ele><time>2026-03-29T16:45:42.775Z</time></trkpt><trkpt lat="45.1135133" lon="10.8142896"><ele>22.0</ele><time>2026-03-29T16:45:44.774Z</time></trkpt><trkpt lat="45.1135556" lon="10.8141847"><ele>22.0</ele><time>2026-03-29T16:45:46.776Z</time></trkpt><trkpt lat="45.1135962" lon="10.8140743"><ele>22.0</ele><time>2026-03-29T16:45:48.775Z</time></trkpt><trkpt lat="45.113636" lon="10.8139624"><ele>22.0</ele><time>2026-03-29T16:45:50.775Z</time></trkpt><trkpt lat="45.113676" lon="10.8138494"><ele>22.0</ele><time>2026-03-29T16:45:52.775Z</time></trkpt><trkpt lat="45.1137148" lon="10.8137353"><ele>22.0</ele><time>2026-03-29T16:45:54.775Z</time></trkpt><trkpt lat="45.1137575" lon="10.8136201"><ele>22.0</ele><time>2026-03-29T16:45:56.775Z</time></trkpt><trkpt lat="45.1138024" lon="10.8135131"><ele>22.6</ele><time>2026-03-29T16:45:58.774Z</time></trkpt><trkpt lat="45.1138468" lon="10.8133967"><ele>23.200000000000003</ele><time>2026-03-29T16:46:00.775Z</time></trkpt><trkpt lat="45.1138954" lon="10.8132838"><ele>23.8</ele><time>2026-03-29T16:46:02.774Z</time></trkpt><trkpt lat="45.1139443" lon="10.8131784"><ele>24.4</ele><time>2026-03-29T16:46:04.775Z</time></trkpt><trkpt lat="45.1139906" lon="10.8130657"><ele>25.0</ele><time>2026-03-29T16:46:06.774Z</time></trkpt><trkpt lat="45.1140652" lon="10.8129049"><ele>24.8</ele><time>2026-03-29T16:46:09.776Z</time></trkpt><trkpt lat="45.1141127" lon="10.812788"><ele>24.6</ele><time>2026-03-29T16:46:11.774Z</time></trkpt><trkpt lat="45.1141648" lon="10.812671"><ele>24.4</ele><time>2026-03-29T16:46:13.773Z</time></trkpt><trkpt lat="45.1142148" lon="10.8125536"><ele>24.2</ele><time>2026-03-29T16:46:15.774Z</time></trkpt><trkpt lat="45.1142694" lon="10.8124404"><ele>24.0</ele><time>2026-03-29T16:46:17.775Z</time></trkpt><trkpt lat="45.1143223" lon="10.8123239"><ele>24.0</ele><time>2026-03-29T16:46:19.773Z</time></trkpt><trkpt lat="45.1143722" lon="10.8122053"><ele>24.0</ele><time>2026-03-29T16:46:21.774Z</time></trkpt><trkpt lat="45.1144237" lon="10.8120886"><ele>24.0</ele><time>2026-03-29T16:46:23.774Z</time></trkpt><trkpt lat="45.1144743" lon="10.811977"><ele>24.0</ele><time>2026-03-29T16:46:25.774Z</time></trkpt><trkpt lat="45.1145266" lon="10.8118591"><ele>24.0</ele><time>2026-03-29T16:46:27.775Z</time></trkpt><trkpt lat="45.1145785" lon="10.8117432"><ele>23.2</ele><time>2026-03-29T16:46:29.775Z</time></trkpt><trkpt lat="45.1146323" lon="10.8116292"><ele>22.4</ele><time>2026-03-29T16:46:31.775Z</time></trkpt><trkpt lat="45.1146739" lon="10.8115153"><ele>21.6</ele><time>2026-03-29T16:46:33.775Z</time></trkpt><trkpt lat="45.1147146" lon="10.8113927"><ele>20.8</ele><time>2026-03-29T16:46:35.775Z</time></trkpt><trkpt lat="45.1147495" lon="10.8112734"><ele>20.0</ele><time>2026-03-29T16:46:37.774Z</time></trkpt><trkpt lat="45.1148091" lon="10.8110847"><ele>20.0</ele><time>2026-03-29T16:46:40.774Z</time></trkpt><trkpt lat="45.1148508" lon="10.8109641"><ele>20.0</ele><time>2026-03-29T16:46:42.775Z</time></trkpt><trkpt lat="45.1148942" lon="10.8108444"><ele>20.0</ele><time>2026-03-29T16:46:44.775Z</time></trkpt><trkpt lat="45.1149349" lon="10.8107255"><ele>20.0</ele><time>2026-03-29T16:46:46.776Z</time></trkpt><trkpt lat="45.1149709" lon="10.8106035"><ele>20.0</ele><time>2026-03-29T16:46:48.775Z</time></trkpt><trkpt lat="45.1150086" lon="10.8104864"><ele>20.0</ele><time>2026-03-29T16:46:50.776Z</time></trkpt><trkpt lat="45.1150457" lon="10.8103712"><ele>20.0</ele><time>2026-03-29T16:46:52.774Z</time></trkpt><trkpt lat="45.115084" lon="10.8102603"><ele>20.0</ele><time>2026-03-29T16:46:54.775Z</time></trkpt><trkpt lat="45.1151195" lon="10.8101482"><ele>20.0</ele><time>2026-03-29T16:46:56.775Z</time></trkpt><trkpt lat="45.1151501" lon="10.8100411"><ele>20.0</ele><time>2026-03-29T16:46:58.773Z</time></trkpt><trkpt lat="45.1151845" lon="10.8099426"><ele>20.0</ele><time>2026-03-29T16:47:00.775Z</time></trkpt><trkpt lat="45.1152192" lon="10.8098466"><ele>20.0</ele><time>2026-03-29T16:47:02.774Z</time></trkpt><trkpt lat="45.1152486" lon="10.8097484"><ele>20.0</ele><time>2026-03-29T16:47:04.774Z</time></trkpt><trkpt lat="45.115274" lon="10.8096611"><ele>20.0</ele><time>2026-03-29T16:47:06.775Z</time></trkpt><trkpt lat="45.1153128" lon="10.8095392"><ele>20.0</ele><time>2026-03-29T16:47:10.776Z</time></trkpt><trkpt lat="45.1153356" lon="10.8094535"><ele>20.0</ele><time>2026-03-29T16:47:12.774Z</time></trkpt><trkpt lat="45.1153609" lon="10.8093656"><ele>20.0</ele><time>2026-03-29T16:47:14.773Z</time></trkpt><trkpt lat="45.11539" lon="10.8092705"><ele>20.0</ele><time>2026-03-29T16:47:16.775Z</time></trkpt><trkpt lat="45.1154193" lon="10.8091386"><ele>20.0</ele><time>2026-03-29T16:47:18.774Z</time></trkpt><trkpt lat="45.1154568" lon="10.8090068"><ele>20.0</ele><time>2026-03-29T16:47:20.774Z</time></trkpt><trkpt lat="45.1154979" lon="10.8088645"><ele>20.0</ele><time>2026-03-29T16:47:22.774Z</time></trkpt><trkpt lat="45.1155369" lon="10.8087181"><ele>20.0</ele><time>2026-03-29T16:47:24.773Z</time></trkpt><trkpt lat="45.1155865" lon="10.8085779"><ele>20.0</ele><time>2026-03-29T16:47:26.775Z</time></trkpt><trkpt lat="45.115619" lon="10.8084316"><ele>20.2</ele><time>2026-03-29T16:47:28.775Z</time></trkpt><trkpt lat="45.1156605" lon="10.8082776"><ele>20.4</ele><time>2026-03-29T16:47:30.774Z</time></trkpt><trkpt lat="45.1157045" lon="10.8081332"><ele>20.6</ele><time>2026-03-29T16:47:32.775Z</time></trkpt><trkpt lat="45.1157467" lon="10.8079967"><ele>20.8</ele><time>2026-03-29T16:47:34.774Z</time></trkpt><trkpt lat="45.1157907" lon="10.8078515"><ele>21.0</ele><time>2026-03-29T16:47:36.775Z</time></trkpt><trkpt lat="45.1158359" lon="10.8077039"><ele>21.25</ele><time>2026-03-29T16:47:38.774Z</time></trkpt><trkpt lat="45.1158843" lon="10.8075554"><ele>21.5</ele><time>2026-03-29T16:47:40.775Z</time></trkpt><trkpt lat="45.1159409" lon="10.8074139"><ele>21.75</ele><time>2026-03-29T16:47:42.774Z</time></trkpt><trkpt lat="45.1159959" lon="10.8072639"><ele>22.0</ele><time>2026-03-29T16:47:44.774Z</time></trkpt><trkpt lat="45.11605" lon="10.8071141"><ele>22.0</ele><time>2026-03-29T16:47:46.775Z</time></trkpt><trkpt lat="45.1161072" lon="10.8069615"><ele>22.0</ele><time>2026-03-29T16:47:48.774Z</time></trkpt><trkpt lat="45.1161619" lon="10.8068114"><ele>22.0</ele><time>2026-03-29T16:47:50.775Z</time></trkpt><trkpt lat="45.1162203" lon="10.8066689"><ele>22.0</ele><time>2026-03-29T16:47:52.774Z</time></trkpt><trkpt lat="45.1162722" lon="10.8065265"><ele>21.8</ele><time>2026-03-29T16:47:54.774Z</time></trkpt><trkpt lat="45.1163293" lon="10.8063943"><ele>21.6</ele><time>2026-03-29T16:47:56.773Z</time></trkpt><trkpt lat="45.1163789" lon="10.8062707"><ele>21.400000000000002</ele><time>2026-03-29T16:47:58.775Z</time></trkpt><trkpt lat="45.1164341" lon="10.8061336"><ele>21.200000000000003</ele><time>2026-03-29T16:48:00.776Z</time></trkpt><trkpt lat="45.1164957" lon="10.8060119"><ele>21.0</ele><time>2026-03-29T16:48:02.773Z</time></trkpt><trkpt lat="45.1165489" lon="10.8058814"><ele>21.0</ele><time>2026-03-29T16:48:04.776Z</time></trkpt><trkpt lat="45.1166033" lon="10.8057622"><ele>21.0</ele><time>2026-03-29T16:48:06.776Z</time></trkpt><trkpt lat="45.1166534" lon="10.8056357"><ele>21.0</ele><time>2026-03-29T16:48:08.776Z</time></trkpt><trkpt lat="45.1167388" lon="10.8054446"><ele>21.0</ele><time>2026-03-29T16:48:11.776Z</time></trkpt><trkpt lat="45.1167974" lon="10.8053197"><ele>21.0</ele><time>2026-03-29T16:48:13.776Z</time></trkpt><trkpt lat="45.1168535" lon="10.8051865"><ele>21.0</ele><time>2026-03-29T16:48:15.775Z</time></trkpt><trkpt lat="45.1169084" lon="10.8050559"><ele>21.0</ele><time>2026-03-29T16:48:17.775Z</time></trkpt><trkpt lat="45.116959" lon="10.8049229"><ele>21.0</ele><time>2026-03-29T16:48:19.775Z</time></trkpt><trkpt lat="45.1170197" lon="10.8048087"><ele>21.0</ele><time>2026-03-29T16:48:21.775Z</time></trkpt><trkpt lat="45.1170813" lon="10.8046939"><ele>20.8</ele><time>2026-03-29T16:48:23.774Z</time></trkpt><trkpt lat="45.1171503" lon="10.8045866"><ele>20.6</ele><time>2026-03-29T16:48:25.775Z</time></trkpt><trkpt lat="45.1172177" lon="10.8044689"><ele>20.4</ele><time>2026-03-29T16:48:27.775Z</time></trkpt><trkpt lat="45.1172765" lon="10.8043505"><ele>20.2</ele><time>2026-03-29T16:48:29.774Z</time></trkpt><trkpt lat="45.1173426" lon="10.8042181"><ele>20.0</ele><time>2026-03-29T16:48:31.775Z</time></trkpt><trkpt lat="45.1174059" lon="10.8040827"><ele>20.0</ele><time>2026-03-29T16:48:33.774Z</time></trkpt><trkpt lat="45.1174645" lon="10.8039494"><ele>20.0</ele><time>2026-03-29T16:48:35.775Z</time></trkpt><trkpt lat="45.1175279" lon="10.8038359"><ele>20.0</ele><time>2026-03-29T16:48:37.774Z</time></trkpt><trkpt lat="45.1175812" lon="10.8036992"><ele>20.0</ele><time>2026-03-29T16:48:39.774Z</time></trkpt><trkpt lat="45.1176765" lon="10.8034572"><ele>20.2</ele><time>2026-03-29T16:48:43.683Z</time></trkpt><trkpt lat="45.1177252" lon="10.8033602"><ele>20.4</ele><time>2026-03-29T16:48:44.775Z</time></trkpt><trkpt lat="45.1177903" lon="10.803231"><ele>20.6</ele><time>2026-03-29T16:48:46.774Z</time></trkpt><trkpt lat="45.1178496" lon="10.8031063"><ele>20.8</ele><time>2026-03-29T16:48:48.775Z</time></trkpt><trkpt lat="45.1179054" lon="10.8029755"><ele>21.0</ele><time>2026-03-29T16:48:50.774Z</time></trkpt><trkpt lat="45.1179587" lon="10.8028481"><ele>21.0</ele><time>2026-03-29T16:48:52.775Z</time></trkpt><trkpt lat="45.1180166" lon="10.8027199"><ele>21.0</ele><time>2026-03-29T16:48:54.774Z</time></trkpt><trkpt lat="45.118074" lon="10.8025933"><ele>21.0</ele><time>2026-03-29T16:48:56.774Z</time></trkpt><trkpt lat="45.1181181" lon="10.8024775"><ele>21.0</ele><time>2026-03-29T16:48:58.774Z</time></trkpt><trkpt lat="45.1181713" lon="10.8023342"><ele>21.0</ele><time>2026-03-29T16:49:00.776Z</time></trkpt><trkpt lat="45.118217" lon="10.8022136"><ele>21.0</ele><time>2026-03-29T16:49:02.775Z</time></trkpt><trkpt lat="45.1182528" lon="10.8020746"><ele>21.0</ele><time>2026-03-29T16:49:04.773Z</time></trkpt><trkpt lat="45.1182848" lon="10.8019444"><ele>21.0</ele><time>2026-03-29T16:49:06.774Z</time></trkpt><trkpt lat="45.1183013" lon="10.8018119"><ele>21.0</ele><time>2026-03-29T16:49:08.773Z</time></trkpt><trkpt lat="45.118316" lon="10.8016693"><ele>21.0</ele><time>2026-03-29T16:49:10.774Z</time></trkpt><trkpt lat="45.11833" lon="10.801536"><ele>20.8</ele><time>2026-03-29T16:49:12.774Z</time></trkpt><trkpt lat="45.1183571" lon="10.8013906"><ele>20.6</ele><time>2026-03-29T16:49:14.775Z</time></trkpt><trkpt lat="45.1183769" lon="10.8012455"><ele>20.4</ele><time>2026-03-29T16:49:16.774Z</time></trkpt><trkpt lat="45.1183997" lon="10.801099"><ele>20.2</ele><time>2026-03-29T16:49:18.776Z</time></trkpt><trkpt lat="45.1184132" lon="10.8009531"><ele>20.0</ele><time>2026-03-29T16:49:20.776Z</time></trkpt><trkpt lat="45.1184137" lon="10.800812"><ele>20.4</ele><time>2026-03-29T16:49:22.776Z</time></trkpt><trkpt lat="45.1184171" lon="10.8006677"><ele>20.8</ele><time>2026-03-29T16:49:24.774Z</time></trkpt><trkpt lat="45.1184195" lon="10.8005233"><ele>21.200000000000003</ele><time>2026-03-29T16:49:26.775Z</time></trkpt><trkpt lat="45.1184223" lon="10.8003847"><ele>21.6</ele><time>2026-03-29T16:49:28.775Z</time></trkpt><trkpt lat="45.1184241" lon="10.8002482"><ele>22.0</ele><time>2026-03-29T16:49:30.775Z</time></trkpt><trkpt lat="45.1184236" lon="10.8001154"><ele>22.400000000000002</ele><time>2026-03-29T16:49:32.774Z</time></trkpt><trkpt lat="45.1184129" lon="10.7999851"><ele>22.8</ele><time>2026-03-29T16:49:34.774Z</time></trkpt><trkpt lat="45.1184127" lon="10.7998467"><ele>23.2</ele><time>2026-03-29T16:49:36.775Z</time></trkpt><trkpt lat="45.1184261" lon="10.7997092"><ele>23.6</ele><time>2026-03-29T16:49:38.774Z</time></trkpt><trkpt lat="45.1184523" lon="10.7995716"><ele>24.0</ele><time>2026-03-29T16:49:40.775Z</time></trkpt><trkpt lat="45.1184835" lon="10.7994485"><ele>23.799999999999997</ele><time>2026-03-29T16:49:42.775Z</time></trkpt><trkpt lat="45.1185193" lon="10.7993157"><ele>23.599999999999998</ele><time>2026-03-29T16:49:44.774Z</time></trkpt><trkpt lat="45.1185589" lon="10.7991914"><ele>23.4</ele><time>2026-03-29T16:49:46.774Z</time></trkpt><trkpt lat="45.1185986" lon="10.7990673"><ele>23.2</ele><time>2026-03-29T16:49:48.775Z</time></trkpt><trkpt lat="45.1186481" lon="10.7989516"><ele>23.0</ele><time>2026-03-29T16:49:50.774Z</time></trkpt><trkpt lat="45.1186975" lon="10.798838"><ele>23.0</ele><time>2026-03-29T16:49:52.775Z</time></trkpt><trkpt lat="45.1187429" lon="10.798727"><ele>23.0</ele><time>2026-03-29T16:49:54.775Z</time></trkpt><trkpt lat="45.1187891" lon="10.7986174"><ele>23.0</ele><time>2026-03-29T16:49:56.773Z</time></trkpt><trkpt lat="45.1188357" lon="10.7985003"><ele>23.0</ele><time>2026-03-29T16:49:58.774Z</time></trkpt><trkpt lat="45.1188791" lon="10.7983909"><ele>23.0</ele><time>2026-03-29T16:50:00.774Z</time></trkpt><trkpt lat="45.1189272" lon="10.7982735"><ele>22.833333333333336</ele><time>2026-03-29T16:50:02.775Z</time></trkpt><trkpt lat="45.1189706" lon="10.798162"><ele>22.666666666666668</ele><time>2026-03-29T16:50:04.774Z</time></trkpt><trkpt lat="45.1190053" lon="10.7980398"><ele>22.5</ele><time>2026-03-29T16:50:06.775Z</time></trkpt><trkpt lat="45.119019" lon="10.7979169"><ele>22.333333333333332</ele><time>2026-03-29T16:50:08.775Z</time></trkpt><trkpt lat="45.1189829" lon="10.7978129"><ele>22.166666666666664</ele><time>2026-03-29T16:50:10.775Z</time></trkpt><trkpt lat="45.1189174" lon="10.7977669"><ele>22.0</ele><time>2026-03-29T16:50:12.972Z</time></trkpt><trkpt lat="45.1188324" lon="10.7977254"><ele>22.285714285714285</ele><time>2026-03-29T16:50:14.775Z</time></trkpt><trkpt lat="45.1188346" lon="10.797629"><ele>22.57142857142857</ele><time>2026-03-29T16:50:16.774Z</time></trkpt><trkpt lat="45.118796" lon="10.7975455"><ele>22.857142857142854</ele><time>2026-03-29T16:50:18.774Z</time></trkpt><trkpt lat="45.1187206" lon="10.7975061"><ele>23.142857142857142</ele><time>2026-03-29T16:50:20.774Z</time></trkpt><trkpt lat="45.1186551" lon="10.7974479"><ele>23.428571428571427</ele><time>2026-03-29T16:50:22.774Z</time></trkpt><trkpt lat="45.1186514" lon="10.7973468"><ele>23.71428571428571</ele><time>2026-03-29T16:50:24.775Z</time></trkpt><trkpt lat="45.1187112" lon="10.7973788"><ele>24.0</ele><time>2026-03-29T16:50:27.775Z</time></trkpt><trkpt lat="45.1187559" lon="10.7974708"><ele>24.0</ele><time>2026-03-29T16:50:30.774Z</time></trkpt><trkpt lat="45.1188258" lon="10.7974776"><ele>24.0</ele><time>2026-03-29T16:51:09.775Z</time></trkpt><trkpt lat="45.1189082" lon="10.7975135"><ele>24.0</ele><time>2026-03-29T16:51:12.775Z</time></trkpt><trkpt lat="45.1189999" lon="10.7975413"><ele>24.0</ele><time>2026-03-29T16:51:15.776Z</time></trkpt><trkpt lat="45.1190711" lon="10.7975436"><ele>24.0</ele><time>2026-03-29T16:51:17.775Z</time></trkpt><trkpt lat="45.1191486" lon="10.7975284"><ele>24.0</ele><time>2026-03-29T16:51:19.775Z</time></trkpt><trkpt lat="45.1192271" lon="10.797509"><ele>23.333333333333332</ele><time>2026-03-29T16:51:21.775Z</time></trkpt><trkpt lat="45.119304" lon="10.7974686"><ele>22.666666666666668</ele><time>2026-03-29T16:51:23.775Z</time></trkpt><trkpt lat="45.1193759" lon="10.7974087"><ele>22.0</ele><time>2026-03-29T16:51:25.775Z</time></trkpt><trkpt lat="45.1194392" lon="10.7973219"><ele>21.333333333333336</ele><time>2026-03-29T16:51:27.775Z</time></trkpt><trkpt lat="45.1194844" lon="10.7972113"><ele>20.666666666666668</ele><time>2026-03-29T16:51:29.776Z</time></trkpt><trkpt lat="45.1195308" lon="10.7971032"><ele>20.0</ele><time>2026-03-29T16:51:31.776Z</time></trkpt><trkpt lat="45.1195713" lon="10.796989"><ele>20.0</ele><time>2026-03-29T16:51:33.774Z</time></trkpt><trkpt lat="45.1196095" lon="10.7968664"><ele>20.0</ele><time>2026-03-29T16:51:35.776Z</time></trkpt><trkpt lat="45.1196539" lon="10.7967456"><ele>20.0</ele><time>2026-03-29T16:51:37.773Z</time></trkpt><trkpt lat="45.1196981" lon="10.796623"><ele>20.0</ele><time>2026-03-29T16:51:39.774Z</time></trkpt><trkpt lat="45.1197429" lon="10.7965083"><ele>20.0</ele><time>2026-03-29T16:51:41.775Z</time></trkpt><trkpt lat="45.1197775" lon="10.7963999"><ele>20.166666666666668</ele><time>2026-03-29T16:51:43.774Z</time></trkpt><trkpt lat="45.1198071" lon="10.7963155"><ele>20.333333333333336</ele><time>2026-03-29T16:51:45.775Z</time></trkpt><trkpt lat="45.1198445" lon="10.7962002"><ele>20.5</ele><time>2026-03-29T16:51:47.774Z</time></trkpt><trkpt lat="45.119889" lon="10.7960691"><ele>20.666666666666668</ele><time>2026-03-29T16:51:49.774Z</time></trkpt><trkpt lat="45.1199239" lon="10.7959495"><ele>20.833333333333332</ele><time>2026-03-29T16:51:51.774Z</time></trkpt><trkpt lat="45.1199603" lon="10.7958339"><ele>21.0</ele><time>2026-03-29T16:51:53.774Z</time></trkpt><trkpt lat="45.1200053" lon="10.7957415"><ele>21.333333333333332</ele><time>2026-03-29T16:51:56.773Z</time></trkpt><trkpt lat="45.1200813" lon="10.7957662"><ele>21.666666666666668</ele><time>2026-03-29T16:52:15.774Z</time></trkpt><trkpt lat="45.120149" lon="10.7958272"><ele>22.0</ele><time>2026-03-29T16:52:18.775Z</time></trkpt><trkpt lat="45.1201827" lon="10.7957257"><ele>22.333333333333336</ele><time>2026-03-29T16:52:21.364Z</time></trkpt><trkpt lat="45.1202164" lon="10.79564"><ele>22.666666666666668</ele><time>2026-03-29T16:52:22.776Z</time></trkpt><trkpt lat="45.1202517" lon="10.7955346"><ele>23.0</ele><time>2026-03-29T16:52:24.776Z</time></trkpt><trkpt lat="45.120292" lon="10.7954278"><ele>23.0</ele><time>2026-03-29T16:52:26.775Z</time></trkpt><trkpt lat="45.1203325" lon="10.7953177"><ele>23.0</ele><time>2026-03-29T16:52:28.774Z</time></trkpt><trkpt lat="45.120373" lon="10.7952086"><ele>23.0</ele><time>2026-03-29T16:52:30.775Z</time></trkpt><trkpt lat="45.1204209" lon="10.795102"><ele>23.0</ele><time>2026-03-29T16:52:32.774Z</time></trkpt><trkpt lat="45.1204735" lon="10.7950004"><ele>23.0</ele><time>2026-03-29T16:52:34.775Z</time></trkpt><trkpt lat="45.1205313" lon="10.7949055"><ele>23.0</ele><time>2026-03-29T16:52:36.776Z</time></trkpt><trkpt lat="45.1205925" lon="10.7948197"><ele>23.0</ele><time>2026-03-29T16:52:38.774Z</time></trkpt><trkpt lat="45.1206556" lon="10.7947406"><ele>23.0</ele><time>2026-03-29T16:52:40.775Z</time></trkpt><trkpt lat="45.1207262" lon="10.7946655"><ele>23.0</ele><time>2026-03-29T16:52:42.773Z</time></trkpt><trkpt lat="45.1207959" lon="10.7945884"><ele>23.0</ele><time>2026-03-29T16:52:44.775Z</time></trkpt><trkpt lat="45.1208723" lon="10.7945159"><ele>23.0</ele><time>2026-03-29T16:52:46.775Z</time></trkpt><trkpt lat="45.1209373" lon="10.7944383"><ele>23.0</ele><time>2026-03-29T16:52:48.776Z</time></trkpt><trkpt lat="45.1210127" lon="10.7943533"><ele>23.0</ele><time>2026-03-29T16:52:50.774Z</time></trkpt><trkpt lat="45.1210902" lon="10.7942621"><ele>23.0</ele><time>2026-03-29T16:52:52.776Z</time></trkpt><trkpt lat="45.1211632" lon="10.7941793"><ele>23.0</ele><time>2026-03-29T16:52:54.775Z</time></trkpt><trkpt lat="45.1212367" lon="10.7941005"><ele>23.0</ele><time>2026-03-29T16:52:56.776Z</time></trkpt><trkpt lat="45.1213088" lon="10.7940165"><ele>23.0</ele><time>2026-03-29T16:52:58.774Z</time></trkpt><trkpt lat="45.1213827" lon="10.7939268"><ele>23.0</ele><time>2026-03-29T16:53:00.775Z</time></trkpt><trkpt lat="45.1214549" lon="10.7938521"><ele>23.0</ele><time>2026-03-29T16:53:02.775Z</time></trkpt><trkpt lat="45.12153" lon="10.7937771"><ele>23.0</ele><time>2026-03-29T16:53:04.775Z</time></trkpt><trkpt lat="45.1216004" lon="10.7936857"><ele>23.0</ele><time>2026-03-29T16:53:06.775Z</time></trkpt><trkpt lat="45.121681" lon="10.7936097"><ele>23.0</ele><time>2026-03-29T16:53:08.774Z</time></trkpt><trkpt lat="45.1217549" lon="10.793517"><ele>23.0</ele><time>2026-03-29T16:53:10.774Z</time></trkpt><trkpt lat="45.1218247" lon="10.7934266"><ele>23.0</ele><time>2026-03-29T16:53:12.775Z</time></trkpt><trkpt lat="45.1219163" lon="10.7933816"><ele>23.0</ele><time>2026-03-29T16:53:14.775Z</time></trkpt><trkpt lat="45.1220009" lon="10.7933952"><ele>23.0</ele><time>2026-03-29T16:53:16.774Z</time></trkpt><trkpt lat="45.1220829" lon="10.793434"><ele>23.0</ele><time>2026-03-29T16:53:18.776Z</time></trkpt><trkpt lat="45.1221513" lon="10.7933894"><ele>23.0</ele><time>2026-03-29T16:53:21.775Z</time></trkpt><trkpt lat="45.1220933" lon="10.793287"><ele>23.0</ele><time>2026-03-29T16:53:23.775Z</time></trkpt><trkpt lat="45.1220156" lon="10.7931857"><ele>23.0</ele><time>2026-03-29T16:53:25.776Z</time></trkpt><trkpt lat="45.121969" lon="10.7930669"><ele>23.0</ele><time>2026-03-29T16:53:27.775Z</time></trkpt><trkpt lat="45.1219901" lon="10.792937"><ele>23.0</ele><time>2026-03-29T16:53:29.775Z</time></trkpt><trkpt lat="45.122029" lon="10.7928126"><ele>23.0</ele><time>2026-03-29T16:53:31.775Z</time></trkpt><trkpt lat="45.1220681" lon="10.7926794"><ele>23.0</ele><time>2026-03-29T16:53:33.775Z</time></trkpt><trkpt lat="45.1221078" lon="10.7925439"><ele>23.0</ele><time>2026-03-29T16:53:35.776Z</time></trkpt><trkpt lat="45.1221434" lon="10.7924156"><ele>23.0</ele><time>2026-03-29T16:53:37.775Z</time></trkpt><trkpt lat="45.1221811" lon="10.7922877"><ele>23.0</ele><time>2026-03-29T16:53:39.774Z</time></trkpt><trkpt lat="45.1222186" lon="10.7921555"><ele>23.0</ele><time>2026-03-29T16:53:41.775Z</time></trkpt><trkpt lat="45.1222543" lon="10.7920266"><ele>23.0</ele><time>2026-03-29T16:53:43.775Z</time></trkpt><trkpt lat="45.122289" lon="10.7919081"><ele>23.0</ele><time>2026-03-29T16:53:45.775Z</time></trkpt><trkpt lat="45.1223238" lon="10.7917775"><ele>23.0</ele><time>2026-03-29T16:53:47.775Z</time></trkpt><trkpt lat="45.1223557" lon="10.7916453"><ele>23.0</ele><time>2026-03-29T16:53:49.775Z</time></trkpt><trkpt lat="45.1223914" lon="10.791519"><ele>23.0</ele><time>2026-03-29T16:53:51.776Z</time></trkpt><trkpt lat="45.1224309" lon="10.7913955"><ele>23.0</ele><time>2026-03-29T16:53:53.775Z</time></trkpt><trkpt lat="45.1224652" lon="10.7912689"><ele>23.0</ele><time>2026-03-29T16:53:55.775Z</time></trkpt><trkpt lat="45.1225058" lon="10.7911547"><ele>23.0</ele><time>2026-03-29T16:53:57.776Z</time></trkpt><trkpt lat="45.1225448" lon="10.7910089"><ele>23.0</ele><time>2026-03-29T16:53:59.773Z</time></trkpt><trkpt lat="45.1225789" lon="10.7908793"><ele>23.0</ele><time>2026-03-29T16:54:01.776Z</time></trkpt><trkpt lat="45.1226174" lon="10.7907627"><ele>23.0</ele><time>2026-03-29T16:54:03.776Z</time></trkpt><trkpt lat="45.1226545" lon="10.7906427"><ele>23.0</ele><time>2026-03-29T16:54:05.776Z</time></trkpt><trkpt lat="45.1226831" lon="10.7905472"><ele>23.0</ele><time>2026-03-29T16:54:07.775Z</time></trkpt><trkpt lat="45.1227038" lon="10.790434"><ele>23.0</ele><time>2026-03-29T16:54:09.775Z</time></trkpt><trkpt lat="45.1227263" lon="10.7903207"><ele>23.0</ele><time>2026-03-29T16:54:11.776Z</time></trkpt><trkpt lat="45.1227553" lon="10.7902128"><ele>23.0</ele><time>2026-03-29T16:54:13.774Z</time></trkpt><trkpt lat="45.122789" lon="10.7901008"><ele>23.2</ele><time>2026-03-29T16:54:15.774Z</time></trkpt><trkpt lat="45.1228202" lon="10.7899818"><ele>23.4</ele><time>2026-03-29T16:54:17.774Z</time></trkpt><trkpt lat="45.1228532" lon="10.7898516"><ele>23.599999999999998</ele><time>2026-03-29T16:54:19.776Z</time></trkpt><trkpt lat="45.122887" lon="10.7897326"><ele>23.799999999999997</ele><time>2026-03-29T16:54:21.775Z</time></trkpt><trkpt lat="45.1229265" lon="10.7896057"><ele>24.0</ele><time>2026-03-29T16:54:23.775Z</time></trkpt><trkpt lat="45.1229731" lon="10.7894822"><ele>24.0</ele><time>2026-03-29T16:54:25.774Z</time></trkpt><trkpt lat="45.1230248" lon="10.7893633"><ele>24.0</ele><time>2026-03-29T16:54:27.774Z</time></trkpt><trkpt lat="45.1230722" lon="10.7892513"><ele>24.0</ele><time>2026-03-29T16:54:29.776Z</time></trkpt><trkpt lat="45.1231121" lon="10.7891356"><ele>24.0</ele><time>2026-03-29T16:54:31.774Z</time></trkpt><trkpt lat="45.1231686" lon="10.7890204"><ele>24.0</ele><time>2026-03-29T16:54:33.776Z</time></trkpt><trkpt lat="45.1232196" lon="10.7889143"><ele>23.833333333333332</ele><time>2026-03-29T16:54:35.776Z</time></trkpt><trkpt lat="45.1232787" lon="10.7888118"><ele>23.666666666666668</ele><time>2026-03-29T16:54:37.775Z</time></trkpt><trkpt lat="45.1233303" lon="10.788731"><ele>23.5</ele><time>2026-03-29T16:54:39.774Z</time></trkpt><trkpt lat="45.1233819" lon="10.788673"><ele>23.333333333333336</ele><time>2026-03-29T16:54:41.775Z</time></trkpt><trkpt lat="45.123433" lon="10.7885869"><ele>23.166666666666668</ele><time>2026-03-29T16:54:43.776Z</time></trkpt><trkpt lat="45.1234885" lon="10.7885057"><ele>23.0</ele><time>2026-03-29T16:54:45.774Z</time></trkpt><trkpt lat="45.1235558" lon="10.7884307"><ele>23.0</ele><time>2026-03-29T16:54:47.776Z</time></trkpt><trkpt lat="45.1236235" lon="10.7883474"><ele>23.0</ele><time>2026-03-29T16:54:49.774Z</time></trkpt><trkpt lat="45.1236877" lon="10.7882711"><ele>23.0</ele><time>2026-03-29T16:54:51.774Z</time></trkpt><trkpt lat="45.1237557" lon="10.7882251"><ele>23.0</ele><time>2026-03-29T16:54:53.775Z</time></trkpt><trkpt lat="45.1238248" lon="10.7881987"><ele>23.0</ele><time>2026-03-29T16:54:55.774Z</time></trkpt><trkpt lat="45.1239007" lon="10.788194"><ele>23.0</ele><time>2026-03-29T16:54:57.775Z</time></trkpt><trkpt lat="45.1239793" lon="10.7881658"><ele>23.0</ele><time>2026-03-29T16:54:59.775Z</time></trkpt><trkpt lat="45.1240511" lon="10.7881066"><ele>23.0</ele><time>2026-03-29T16:55:01.776Z</time></trkpt><trkpt lat="45.1241196" lon="10.7880613"><ele>23.0</ele><time>2026-03-29T16:55:03.774Z</time></trkpt><trkpt lat="45.1241919" lon="10.7880387"><ele>23.0</ele><time>2026-03-29T16:55:05.776Z</time></trkpt><trkpt lat="45.1242699" lon="10.7880502"><ele>23.0</ele><time>2026-03-29T16:55:07.776Z</time></trkpt><trkpt lat="45.1243513" lon="10.788082"><ele>23.0</ele><time>2026-03-29T16:55:09.776Z</time></trkpt><trkpt lat="45.124434" lon="10.7881174"><ele>22.833333333333336</ele><time>2026-03-29T16:55:11.776Z</time></trkpt><trkpt lat="45.1245175" lon="10.7881493"><ele>22.666666666666668</ele><time>2026-03-29T16:55:13.776Z</time></trkpt><trkpt lat="45.124601" lon="10.7881683"><ele>22.5</ele><time>2026-03-29T16:55:15.776Z</time></trkpt><trkpt lat="45.1246848" lon="10.7881976"><ele>22.333333333333332</ele><time>2026-03-29T16:55:17.775Z</time></trkpt><trkpt lat="45.1247709" lon="10.7882316"><ele>22.166666666666664</ele><time>2026-03-29T16:55:19.775Z</time></trkpt><trkpt lat="45.1248634" lon="10.7882621"><ele>22.0</ele><time>2026-03-29T16:55:21.776Z</time></trkpt><trkpt lat="45.1249436" lon="10.7882961"><ele>21.5</ele><time>2026-03-29T16:55:23.774Z</time></trkpt><trkpt lat="45.1250366" lon="10.7883214"><ele>21.0</ele><time>2026-03-29T16:55:26.775Z</time></trkpt><trkpt lat="45.125104" lon="10.7883508"><ele>20.5</ele><time>2026-03-29T16:55:28.776Z</time></trkpt><trkpt lat="45.1251713" lon="10.7883727"><ele>20.0</ele><time>2026-03-29T16:55:30.775Z</time></trkpt><trkpt lat="45.1252483" lon="10.7883969"><ele>19.5</ele><time>2026-03-29T16:55:32.774Z</time></trkpt><trkpt lat="45.1253279" lon="10.7884214"><ele>19.0</ele><time>2026-03-29T16:55:34.776Z</time></trkpt><trkpt lat="45.1254073" lon="10.7884399"><ele>19.0</ele><time>2026-03-29T16:55:36.775Z</time></trkpt><trkpt lat="45.125493" lon="10.7884625"><ele>19.0</ele><time>2026-03-29T16:55:38.774Z</time></trkpt><trkpt lat="45.1255636" lon="10.7884899"><ele>19.0</ele><time>2026-03-29T16:55:40.775Z</time></trkpt><trkpt lat="45.1256467" lon="10.7885613"><ele>19.0</ele><time>2026-03-29T16:55:43.774Z</time></trkpt><trkpt lat="45.125719" lon="10.7885941"><ele>19.0</ele><time>2026-03-29T16:55:45.776Z</time></trkpt><trkpt lat="45.1258004" lon="10.7885817"><ele>19.0</ele><time>2026-03-29T16:55:47.776Z</time></trkpt><trkpt lat="45.1258897" lon="10.7885983"><ele>18.8</ele><time>2026-03-29T16:55:49.775Z</time></trkpt><trkpt lat="45.1259879" lon="10.7886137"><ele>18.599999999999998</ele><time>2026-03-29T16:55:51.773Z</time></trkpt><trkpt lat="45.1260679" lon="10.7886747"><ele>18.4</ele><time>2026-03-29T16:55:53.774Z</time></trkpt><trkpt lat="45.1261334" lon="10.7887761"><ele>18.2</ele><time>2026-03-29T16:55:55.775Z</time></trkpt><trkpt lat="45.126198" lon="10.7888505"><ele>18.0</ele><time>2026-03-29T16:55:57.775Z</time></trkpt><trkpt lat="45.1262854" lon="10.7889031"><ele>18.0</ele><time>2026-03-29T16:55:59.776Z</time></trkpt><trkpt lat="45.1263802" lon="10.78892"><ele>18.0</ele><time>2026-03-29T16:56:01.774Z</time></trkpt><trkpt lat="45.1264841" lon="10.7889056"><ele>18.0</ele><time>2026-03-29T16:56:03.775Z</time></trkpt><trkpt lat="45.1265797" lon="10.788864"><ele>18.0</ele><time>2026-03-29T16:56:05.775Z</time></trkpt><trkpt lat="45.1266724" lon="10.7887955"><ele>18.0</ele><time>2026-03-29T16:56:07.775Z</time></trkpt><trkpt lat="45.1267719" lon="10.7887346"><ele>17.4</ele><time>2026-03-29T16:56:09.775Z</time></trkpt><trkpt lat="45.1268857" lon="10.788724"><ele>16.8</ele><time>2026-03-29T16:56:11.775Z</time></trkpt><trkpt lat="45.1269907" lon="10.7887271"><ele>16.2</ele><time>2026-03-29T16:56:13.774Z</time></trkpt><trkpt lat="45.1271005" lon="10.7887344"><ele>15.6</ele><time>2026-03-29T16:56:15.775Z</time></trkpt><trkpt lat="45.1272069" lon="10.7887433"><ele>15.0</ele><time>2026-03-29T16:56:17.775Z</time></trkpt><trkpt lat="45.1273207" lon="10.7887498"><ele>15.0</ele><time>2026-03-29T16:56:19.774Z</time></trkpt><trkpt lat="45.1274297" lon="10.7887533"><ele>15.0</ele><time>2026-03-29T16:56:21.776Z</time></trkpt><trkpt lat="45.1275327" lon="10.7887583"><ele>15.0</ele><time>2026-03-29T16:56:23.776Z</time></trkpt><trkpt lat="45.1276397" lon="10.7887577"><ele>15.0</ele><time>2026-03-29T16:56:25.775Z</time></trkpt><trkpt lat="45.1277425" lon="10.7887612"><ele>15.0</ele><time>2026-03-29T16:56:27.776Z</time></trkpt><trkpt lat="45.1278462" lon="10.7887712"><ele>15.0</ele><time>2026-03-29T16:56:29.774Z</time></trkpt><trkpt lat="45.1279487" lon="10.7887698"><ele>15.0</ele><time>2026-03-29T16:56:31.776Z</time></trkpt><trkpt lat="45.1280542" lon="10.7887638"><ele>15.0</ele><time>2026-03-29T16:56:33.776Z</time></trkpt><trkpt lat="45.1281526" lon="10.7887711"><ele>15.0</ele><time>2026-03-29T16:56:35.774Z</time></trkpt><trkpt lat="45.1282564" lon="10.7887752"><ele>15.0</ele><time>2026-03-29T16:56:37.774Z</time></trkpt><trkpt lat="45.1283591" lon="10.7887798"><ele>15.0</ele><time>2026-03-29T16:56:39.775Z</time></trkpt><trkpt lat="45.1284602" lon="10.788777"><ele>15.0</ele><time>2026-03-29T16:56:41.774Z</time></trkpt><trkpt lat="45.1285645" lon="10.7887853"><ele>15.0</ele><time>2026-03-29T16:56:43.776Z</time></trkpt><trkpt lat="45.1286712" lon="10.788788"><ele>15.0</ele><time>2026-03-29T16:56:45.774Z</time></trkpt><trkpt lat="45.1287685" lon="10.7887951"><ele>15.0</ele><time>2026-03-29T16:56:47.775Z</time></trkpt><trkpt lat="45.1288727" lon="10.7887816"><ele>15.0</ele><time>2026-03-29T16:56:49.773Z</time></trkpt><trkpt lat="45.1289767" lon="10.7887811"><ele>15.0</ele><time>2026-03-29T16:56:51.775Z</time></trkpt><trkpt lat="45.1290882" lon="10.7887861"><ele>15.0</ele><time>2026-03-29T16:56:53.775Z</time></trkpt><trkpt lat="45.1292005" lon="10.7887926"><ele>15.0</ele><time>2026-03-29T16:56:55.774Z</time></trkpt><trkpt lat="45.1293032" lon="10.7887986"><ele>15.0</ele><time>2026-03-29T16:56:57.776Z</time></trkpt><trkpt lat="45.129404" lon="10.7888101"><ele>15.0</ele><time>2026-03-29T16:56:59.773Z</time></trkpt><trkpt lat="45.1295173" lon="10.7888248"><ele>15.0</ele><time>2026-03-29T16:57:01.775Z</time></trkpt><trkpt lat="45.1296247" lon="10.7888397"><ele>15.0</ele><time>2026-03-29T16:57:03.775Z</time></trkpt><trkpt lat="45.1297316" lon="10.7888525"><ele>15.0</ele><time>2026-03-29T16:57:05.775Z</time></trkpt><trkpt lat="45.1298383" lon="10.7888687"><ele>15.0</ele><time>2026-03-29T16:57:07.776Z</time></trkpt><trkpt lat="45.1299353" lon="10.7889122"><ele>15.4</ele><time>2026-03-29T16:57:09.775Z</time></trkpt><trkpt lat="45.1300417" lon="10.788927"><ele>15.8</ele><time>2026-03-29T16:57:11.775Z</time></trkpt><trkpt lat="45.1301436" lon="10.7889409"><ele>16.2</ele><time>2026-03-29T16:57:13.775Z</time></trkpt><trkpt lat="45.1302495" lon="10.7889544"><ele>16.6</ele><time>2026-03-29T16:57:15.774Z</time></trkpt><trkpt lat="45.1303501" lon="10.7889693"><ele>17.0</ele><time>2026-03-29T16:57:17.775Z</time></trkpt><trkpt lat="45.1304421" lon="10.7889866"><ele>17.0</ele><time>2026-03-29T16:57:19.775Z</time></trkpt><trkpt lat="45.1305516" lon="10.789009"><ele>17.0</ele><time>2026-03-29T16:57:21.776Z</time></trkpt><trkpt lat="45.1306597" lon="10.7890285"><ele>17.0</ele><time>2026-03-29T16:57:23.775Z</time></trkpt><trkpt lat="45.1307669" lon="10.7890475"><ele>17.0</ele><time>2026-03-29T16:57:25.774Z</time></trkpt><trkpt lat="45.1308738" lon="10.7890722"><ele>17.0</ele><time>2026-03-29T16:57:27.775Z</time></trkpt><trkpt lat="45.1309763" lon="10.7890995"><ele>17.2</ele><time>2026-03-29T16:57:29.775Z</time></trkpt><trkpt lat="45.1310796" lon="10.7891229"><ele>17.4</ele><time>2026-03-29T16:57:31.775Z</time></trkpt><trkpt lat="45.1311731" lon="10.7891467"><ele>17.6</ele><time>2026-03-29T16:57:33.773Z</time></trkpt><trkpt lat="45.131268" lon="10.7891783"><ele>17.8</ele><time>2026-03-29T16:57:35.775Z</time></trkpt><trkpt lat="45.1313735" lon="10.7892055"><ele>18.0</ele><time>2026-03-29T16:57:37.775Z</time></trkpt><trkpt lat="45.1314746" lon="10.7892295"><ele>17.6</ele><time>2026-03-29T16:57:39.774Z</time></trkpt><trkpt lat="45.1315754" lon="10.7892537"><ele>17.200000000000003</ele><time>2026-03-29T16:57:41.773Z</time></trkpt><trkpt lat="45.1316795" lon="10.7892745"><ele>16.8</ele><time>2026-03-29T16:57:43.773Z</time></trkpt><trkpt lat="45.1317825" lon="10.7892899"><ele>16.400000000000002</ele><time>2026-03-29T16:57:45.775Z</time></trkpt><trkpt lat="45.1318787" lon="10.7893203"><ele>16.0</ele><time>2026-03-29T16:57:47.773Z</time></trkpt><trkpt lat="45.1319731" lon="10.7893463"><ele>16.0</ele><time>2026-03-29T16:57:49.775Z</time></trkpt><trkpt lat="45.1320635" lon="10.7893807"><ele>16.0</ele><time>2026-03-29T16:57:51.774Z</time></trkpt><trkpt lat="45.1321603" lon="10.7894272"><ele>16.0</ele><time>2026-03-29T16:57:53.776Z</time></trkpt><trkpt lat="45.1322593" lon="10.7894776"><ele>16.0</ele><time>2026-03-29T16:57:55.773Z</time></trkpt><trkpt lat="45.1323652" lon="10.7895261"><ele>16.0</ele><time>2026-03-29T16:57:57.776Z</time></trkpt><trkpt lat="45.1324767" lon="10.7895699"><ele>16.0</ele><time>2026-03-29T16:57:59.775Z</time></trkpt><trkpt lat="45.1325784" lon="10.7896149"><ele>16.0</ele><time>2026-03-29T16:58:01.774Z</time></trkpt><trkpt lat="45.1326815" lon="10.7896746"><ele>16.0</ele><time>2026-03-29T16:58:03.775Z</time></trkpt><trkpt lat="45.1327769" lon="10.789749"><ele>16.0</ele><time>2026-03-29T16:58:05.773Z</time></trkpt><trkpt lat="45.132878" lon="10.7898237"><ele>16.0</ele><time>2026-03-29T16:58:07.775Z</time></trkpt><trkpt lat="45.132976" lon="10.7899144"><ele>16.0</ele><time>2026-03-29T16:58:09.775Z</time></trkpt><trkpt lat="45.1330726" lon="10.7899899"><ele>16.0</ele><time>2026-03-29T16:58:11.775Z</time></trkpt><trkpt lat="45.1331675" lon="10.7900696"><ele>16.0</ele><time>2026-03-29T16:58:13.774Z</time></trkpt><trkpt lat="45.1332675" lon="10.7901482"><ele>16.0</ele><time>2026-03-29T16:58:15.775Z</time></trkpt><trkpt lat="45.133348" lon="10.7902022"><ele>16.0</ele><time>2026-03-29T16:58:17.775Z</time></trkpt><trkpt lat="45.1334271" lon="10.7902622"><ele>15.999999999999998</ele><time>2026-03-29T16:58:19.774Z</time></trkpt><trkpt lat="45.1335098" lon="10.7903243"><ele>16.0</ele><time>2026-03-29T16:58:21.774Z</time></trkpt><trkpt lat="45.1335695" lon="10.7903951"><ele>16.0</ele><time>2026-03-29T16:58:23.774Z</time></trkpt><trkpt lat="45.1336467" lon="10.7904585"><ele>16.0</ele><time>2026-03-29T16:58:25.775Z</time></trkpt><trkpt lat="45.1337282" lon="10.7905132"><ele>15.999999999999998</ele><time>2026-03-29T16:58:27.775Z</time></trkpt><trkpt lat="45.1338064" lon="10.7905648"><ele>16.0</ele><time>2026-03-29T16:58:29.775Z</time></trkpt><trkpt lat="45.1338842" lon="10.7906302"><ele>15.999999999999998</ele><time>2026-03-29T16:58:31.774Z</time></trkpt><trkpt lat="45.1339644" lon="10.7906932"><ele>16.0</ele><time>2026-03-29T16:58:33.774Z</time></trkpt><trkpt lat="45.1340363" lon="10.7907598"><ele>16.0</ele><time>2026-03-29T16:58:35.775Z</time></trkpt><trkpt lat="45.1340972" lon="10.790817"><ele>16.0</ele><time>2026-03-29T16:58:37.775Z</time></trkpt><trkpt lat="45.1341479" lon="10.7908939"><ele>15.999999999999998</ele><time>2026-03-29T16:58:39.775Z</time></trkpt><trkpt lat="45.1342158" lon="10.790978"><ele>16.0</ele><time>2026-03-29T16:58:41.775Z</time></trkpt><trkpt lat="45.1342865" lon="10.7910516"><ele>16.400000000000002</ele><time>2026-03-29T16:58:43.775Z</time></trkpt><trkpt lat="45.1343542" lon="10.7911239"><ele>16.8</ele><time>2026-03-29T16:58:45.775Z</time></trkpt><trkpt lat="45.1344239" lon="10.7912009"><ele>17.200000000000003</ele><time>2026-03-29T16:58:47.776Z</time></trkpt><trkpt lat="45.1345022" lon="10.7912798"><ele>17.6</ele><time>2026-03-29T16:58:49.775Z</time></trkpt><trkpt lat="45.1345816" lon="10.7913584"><ele>18.0</ele><time>2026-03-29T16:58:51.775Z</time></trkpt><trkpt lat="45.1346477" lon="10.7914413"><ele>18.0</ele><time>2026-03-29T16:58:53.776Z</time></trkpt><trkpt lat="45.1347256" lon="10.7915227"><ele>18.0</ele><time>2026-03-29T16:58:55.775Z</time></trkpt><trkpt lat="45.1348026" lon="10.791604"><ele>18.0</ele><time>2026-03-29T16:58:57.775Z</time></trkpt><trkpt lat="45.134883" lon="10.7916818"><ele>18.0</ele><time>2026-03-29T16:58:59.774Z</time></trkpt><trkpt lat="45.1349523" lon="10.7917555"><ele>18.0</ele><time>2026-03-29T16:59:01.774Z</time></trkpt><trkpt lat="45.1350225" lon="10.7918348"><ele>18.0</ele><time>2026-03-29T16:59:03.774Z</time></trkpt><trkpt lat="45.1350962" lon="10.7919134"><ele>18.0</ele><time>2026-03-29T16:59:05.776Z</time></trkpt><trkpt lat="45.1351713" lon="10.7919998"><ele>18.0</ele><time>2026-03-29T16:59:07.775Z</time></trkpt><trkpt lat="45.1352488" lon="10.7920838"><ele>18.0</ele><time>2026-03-29T16:59:09.776Z</time></trkpt><trkpt lat="45.1353256" lon="10.7921659"><ele>18.0</ele><time>2026-03-29T16:59:11.776Z</time></trkpt><trkpt lat="45.1353995" lon="10.7922488"><ele>18.0</ele><time>2026-03-29T16:59:13.774Z</time></trkpt><trkpt lat="45.1354751" lon="10.7923272"><ele>18.0</ele><time>2026-03-29T16:59:15.774Z</time></trkpt><trkpt lat="45.1355508" lon="10.7924091"><ele>18.0</ele><time>2026-03-29T16:59:17.775Z</time></trkpt><trkpt lat="45.1356377" lon="10.7924779"><ele>18.0</ele><time>2026-03-29T16:59:19.775Z</time></trkpt><trkpt lat="45.1357202" lon="10.7925459"><ele>18.0</ele><time>2026-03-29T16:59:21.776Z</time></trkpt><trkpt lat="45.1358082" lon="10.7926091"><ele>17.8</ele><time>2026-03-29T16:59:23.775Z</time></trkpt><trkpt lat="45.135892" lon="10.7926787"><ele>17.6</ele><time>2026-03-29T16:59:25.775Z</time></trkpt><trkpt lat="45.1359621" lon="10.792743"><ele>17.4</ele><time>2026-03-29T16:59:27.775Z</time></trkpt><trkpt lat="45.1360444" lon="10.7927914"><ele>17.2</ele><time>2026-03-29T16:59:29.776Z</time></trkpt><trkpt lat="45.1361354" lon="10.7928409"><ele>17.0</ele><time>2026-03-29T16:59:31.775Z</time></trkpt><trkpt lat="45.1362209" lon="10.7928851"><ele>17.0</ele><time>2026-03-29T16:59:33.774Z</time></trkpt><trkpt lat="45.1363127" lon="10.7929276"><ele>17.0</ele><time>2026-03-29T16:59:35.774Z</time></trkpt><trkpt lat="45.1364009" lon="10.7929804"><ele>17.0</ele><time>2026-03-29T16:59:37.775Z</time></trkpt><trkpt lat="45.1364878" lon="10.7930233"><ele>17.0</ele><time>2026-03-29T16:59:39.775Z</time></trkpt><trkpt lat="45.1365707" lon="10.7930756"><ele>17.0</ele><time>2026-03-29T16:59:41.774Z</time></trkpt><trkpt lat="45.1366624" lon="10.7931224"><ele>17.166666666666668</ele><time>2026-03-29T16:59:43.776Z</time></trkpt><trkpt lat="45.1367452" lon="10.7931601"><ele>17.333333333333336</ele><time>2026-03-29T16:59:45.775Z</time></trkpt><trkpt lat="45.1368314" lon="10.7932164"><ele>17.5</ele><time>2026-03-29T16:59:47.775Z</time></trkpt><trkpt lat="45.1369181" lon="10.7932623"><ele>17.666666666666668</ele><time>2026-03-29T16:59:49.776Z</time></trkpt><trkpt lat="45.1370065" lon="10.7933079"><ele>17.833333333333332</ele><time>2026-03-29T16:59:51.775Z</time></trkpt><trkpt lat="45.1370822" lon="10.7933423"><ele>18.0</ele><time>2026-03-29T16:59:53.775Z</time></trkpt><trkpt lat="45.1371645" lon="10.7934026"><ele>18.0</ele><time>2026-03-29T16:59:55.775Z</time></trkpt><trkpt lat="45.1372546" lon="10.7934584"><ele>18.0</ele><time>2026-03-29T16:59:57.774Z</time></trkpt><trkpt lat="45.1373509" lon="10.7934848"><ele>18.0</ele><time>2026-03-29T16:59:59.775Z</time></trkpt><trkpt lat="45.1374425" lon="10.7935397"><ele>18.0</ele><time>2026-03-29T17:00:01.775Z</time></trkpt><trkpt lat="45.1375326" lon="10.7935862"><ele>18.0</ele><time>2026-03-29T17:00:03.773Z</time></trkpt><trkpt lat="45.1376111" lon="10.7936343"><ele>18.2</ele><time>2026-03-29T17:00:05.775Z</time></trkpt><trkpt lat="45.137703" lon="10.7936891"><ele>18.4</ele><time>2026-03-29T17:00:07.775Z</time></trkpt><trkpt lat="45.1377887" lon="10.7937274"><ele>18.599999999999998</ele><time>2026-03-29T17:00:09.774Z</time></trkpt><trkpt lat="45.1378788" lon="10.7937716"><ele>18.8</ele><time>2026-03-29T17:00:11.776Z</time></trkpt><trkpt lat="45.1379719" lon="10.7938107"><ele>19.0</ele><time>2026-03-29T17:00:13.776Z</time></trkpt><trkpt lat="45.1380636" lon="10.7938524"><ele>19.0</ele><time>2026-03-29T17:00:15.775Z</time></trkpt><trkpt lat="45.1381625" lon="10.7938913"><ele>19.0</ele><time>2026-03-29T17:00:17.776Z</time></trkpt><trkpt lat="45.1382581" lon="10.7939345"><ele>19.0</ele><time>2026-03-29T17:00:19.776Z</time></trkpt><trkpt lat="45.1383573" lon="10.7939749"><ele>19.0</ele><time>2026-03-29T17:00:21.774Z</time></trkpt><trkpt lat="45.1384506" lon="10.7940238"><ele>19.0</ele><time>2026-03-29T17:00:23.774Z</time></trkpt><trkpt lat="45.138549" lon="10.7940676"><ele>19.0</ele><time>2026-03-29T17:00:25.775Z</time></trkpt><trkpt lat="45.1386406" lon="10.7941067"><ele>19.0</ele><time>2026-03-29T17:00:27.774Z</time></trkpt><trkpt lat="45.1387335" lon="10.7941547"><ele>19.0</ele><time>2026-03-29T17:00:29.774Z</time></trkpt><trkpt lat="45.1388295" lon="10.7941908"><ele>19.0</ele><time>2026-03-29T17:00:31.774Z</time></trkpt><trkpt lat="45.1389246" lon="10.7942301"><ele>19.0</ele><time>2026-03-29T17:00:33.775Z</time></trkpt><trkpt lat="45.139016" lon="10.7942752"><ele>19.0</ele><time>2026-03-29T17:00:35.776Z</time></trkpt><trkpt lat="45.1391128" lon="10.7943212"><ele>19.0</ele><time>2026-03-29T17:00:37.775Z</time></trkpt><trkpt lat="45.1392066" lon="10.7943575"><ele>19.0</ele><time>2026-03-29T17:00:39.774Z</time></trkpt><trkpt lat="45.1392964" lon="10.7944101"><ele>19.0</ele><time>2026-03-29T17:00:41.775Z</time></trkpt><trkpt lat="45.1393793" lon="10.7944802"><ele>19.0</ele><time>2026-03-29T17:00:43.774Z</time></trkpt><trkpt lat="45.1394501" lon="10.794579"><ele>18.599999999999998</ele><time>2026-03-29T17:00:45.774Z</time></trkpt><trkpt lat="45.1395209" lon="10.7946817"><ele>18.2</ele><time>2026-03-29T17:00:47.776Z</time></trkpt><trkpt lat="45.1396005" lon="10.794765"><ele>17.799999999999997</ele><time>2026-03-29T17:00:49.775Z</time></trkpt><trkpt lat="45.1396831" lon="10.7948289"><ele>17.4</ele><time>2026-03-29T17:00:51.775Z</time></trkpt><trkpt lat="45.1397709" lon="10.7948666"><ele>17.0</ele><time>2026-03-29T17:00:53.776Z</time></trkpt><trkpt lat="45.1398657" lon="10.7949002"><ele>17.4</ele><time>2026-03-29T17:00:55.774Z</time></trkpt><trkpt lat="45.1399598" lon="10.7949354"><ele>17.799999999999997</ele><time>2026-03-29T17:00:57.775Z</time></trkpt><trkpt lat="45.1400474" lon="10.7949613"><ele>18.2</ele><time>2026-03-29T17:00:59.775Z</time></trkpt><trkpt lat="45.140148" lon="10.7949997"><ele>18.599999999999998</ele><time>2026-03-29T17:01:01.775Z</time></trkpt><trkpt lat="45.1402419" lon="10.7950388"><ele>19.0</ele><time>2026-03-29T17:01:03.775Z</time></trkpt><trkpt lat="45.1403325" lon="10.7950583"><ele>19.0</ele><time>2026-03-29T17:01:05.776Z</time></trkpt><trkpt lat="45.1404147" lon="10.7950106"><ele>19.0</ele><time>2026-03-29T17:01:07.775Z</time></trkpt><trkpt lat="45.1404511" lon="10.7949018"><ele>19.0</ele><time>2026-03-29T17:01:09.774Z</time></trkpt><trkpt lat="45.1404776" lon="10.7947816"><ele>19.0</ele><time>2026-03-29T17:01:11.775Z</time></trkpt><trkpt lat="45.1405072" lon="10.7946687"><ele>19.0</ele><time>2026-03-29T17:01:13.774Z</time></trkpt><trkpt lat="45.1405365" lon="10.7945531"><ele>19.0</ele><time>2026-03-29T17:01:15.776Z</time></trkpt><trkpt lat="45.1405535" lon="10.7944388"><ele>19.0</ele><time>2026-03-29T17:01:18.775Z</time></trkpt><trkpt lat="45.1405962" lon="10.7943373"><ele>19.0</ele><time>2026-03-29T17:01:20.775Z</time></trkpt><trkpt lat="45.14067" lon="10.7942961"><ele>19.0</ele><time>2026-03-29T17:01:22.776Z</time></trkpt><trkpt lat="45.1407449" lon="10.794298"><ele>19.0</ele><time>2026-03-29T17:01:24.775Z</time></trkpt><trkpt lat="45.1408202" lon="10.7943317"><ele>19.0</ele><time>2026-03-29T17:01:26.774Z</time></trkpt><trkpt lat="45.1408996" lon="10.7943523"><ele>19.0</ele><time>2026-03-29T17:01:28.775Z</time></trkpt><trkpt lat="45.1409696" lon="10.7943879"><ele>19.333333333333332</ele><time>2026-03-29T17:01:30.776Z</time></trkpt><trkpt lat="45.141028" lon="10.7944597"><ele>19.666666666666664</ele><time>2026-03-29T17:01:32.776Z</time></trkpt><trkpt lat="45.1410945" lon="10.7945261"><ele>20.0</ele><time>2026-03-29T17:01:34.775Z</time></trkpt><trkpt lat="45.1411659" lon="10.794589"><ele>20.333333333333332</ele><time>2026-03-29T17:01:36.776Z</time></trkpt><trkpt lat="45.1412412" lon="10.7946575"><ele>20.666666666666668</ele><time>2026-03-29T17:01:38.776Z</time></trkpt><trkpt lat="45.1413143" lon="10.7947289"><ele>21.0</ele><time>2026-03-29T17:01:40.774Z</time></trkpt><trkpt lat="45.1413949" lon="10.7947963"><ele>21.0</ele><time>2026-03-29T17:01:42.775Z</time></trkpt><trkpt lat="45.14148" lon="10.7948115"><ele>21.0</ele><time>2026-03-29T17:01:44.775Z</time></trkpt><trkpt lat="45.1415657" lon="10.7948553"><ele>21.0</ele><time>2026-03-29T17:01:46.775Z</time></trkpt><trkpt lat="45.1416686" lon="10.7948871"><ele>21.0</ele><time>2026-03-29T17:01:49.774Z</time></trkpt><trkpt lat="45.1417505" lon="10.7948867"><ele>21.0</ele><time>2026-03-29T17:01:51.776Z</time></trkpt><trkpt lat="45.141825" lon="10.794894"><ele>21.0</ele><time>2026-03-29T17:01:53.775Z</time></trkpt><trkpt lat="45.1418908" lon="10.7948772"><ele>21.166666666666668</ele><time>2026-03-29T17:01:55.775Z</time></trkpt><trkpt lat="45.1419606" lon="10.7948476"><ele>21.333333333333332</ele><time>2026-03-29T17:01:57.776Z</time></trkpt><trkpt lat="45.1420392" lon="10.7948119"><ele>21.5</ele><time>2026-03-29T17:01:59.776Z</time></trkpt><trkpt lat="45.1421142" lon="10.794777"><ele>21.666666666666664</ele><time>2026-03-29T17:02:01.776Z</time></trkpt><trkpt lat="45.1421941" lon="10.7947391"><ele>21.833333333333332</ele><time>2026-03-29T17:02:03.775Z</time></trkpt><trkpt lat="45.1422775" lon="10.7946954"><ele>22.0</ele><time>2026-03-29T17:02:05.774Z</time></trkpt><trkpt lat="45.1423672" lon="10.7946563"><ele>21.666666666666664</ele><time>2026-03-29T17:02:07.775Z</time></trkpt><trkpt lat="45.1424488" lon="10.7946197"><ele>21.333333333333332</ele><time>2026-03-29T17:02:09.774Z</time></trkpt><trkpt lat="45.1425297" lon="10.7945795"><ele>21.0</ele><time>2026-03-29T17:02:11.775Z</time></trkpt><trkpt lat="45.1426122" lon="10.7945419"><ele>20.666666666666668</ele><time>2026-03-29T17:02:13.774Z</time></trkpt><trkpt lat="45.1426987" lon="10.7945086"><ele>20.333333333333336</ele><time>2026-03-29T17:02:15.776Z</time></trkpt><trkpt lat="45.1427803" lon="10.7944722"><ele>20.0</ele><time>2026-03-29T17:02:17.775Z</time></trkpt><trkpt lat="45.1429501" lon="10.7944252"><ele>20.0</ele><time>2026-03-29T17:02:21.705Z</time></trkpt><trkpt lat="45.1430591" lon="10.7943859"><ele>20.0</ele><time>2026-03-29T17:02:24.687Z</time></trkpt><trkpt lat="45.1431254" lon="10.794382"><ele>20.0</ele><time>2026-03-29T17:02:25.775Z</time></trkpt><trkpt lat="45.143203" lon="10.79438"><ele>20.0</ele><time>2026-03-29T17:02:27.774Z</time></trkpt><trkpt lat="45.1432717" lon="10.7943723"><ele>20.0</ele><time>2026-03-29T17:02:29.775Z</time></trkpt><trkpt lat="45.143333" lon="10.79435"><ele>20.0</ele><time>2026-03-29T17:02:31.775Z</time></trkpt><trkpt lat="45.1433568" lon="10.7942205"><ele>19.666666666666668</ele><time>2026-03-29T17:02:34.775Z</time></trkpt><trkpt lat="45.1433768" lon="10.7940945"><ele>19.333333333333336</ele><time>2026-03-29T17:02:37.775Z</time></trkpt><trkpt lat="45.1434152" lon="10.793972"><ele>19.0</ele><time>2026-03-29T17:02:40.774Z</time></trkpt><trkpt lat="45.1434423" lon="10.7938846"><ele>18.666666666666668</ele><time>2026-03-29T17:02:42.775Z</time></trkpt><trkpt lat="45.1434715" lon="10.7937992"><ele>18.333333333333332</ele><time>2026-03-29T17:02:44.775Z</time></trkpt><trkpt lat="45.1434959" lon="10.7937165"><ele>18.0</ele><time>2026-03-29T17:02:46.775Z</time></trkpt><trkpt lat="45.1435272" lon="10.7935985"><ele>18.142857142857146</ele><time>2026-03-29T17:02:49.775Z</time></trkpt><trkpt lat="45.1435622" lon="10.7934932"><ele>18.285714285714285</ele><time>2026-03-29T17:02:52.775Z</time></trkpt><trkpt lat="45.143601" lon="10.7934229"><ele>18.42857142857143</ele><time>2026-03-29T17:02:54.775Z</time></trkpt><trkpt lat="45.1436184" lon="10.7933367"><ele>18.571428571428573</ele><time>2026-03-29T17:02:56.775Z</time></trkpt><trkpt lat="45.1436377" lon="10.7932494"><ele>18.714285714285715</ele><time>2026-03-29T17:02:58.775Z</time></trkpt><trkpt lat="45.1436675" lon="10.7931473"><ele>18.857142857142858</ele><time>2026-03-29T17:03:01.775Z</time></trkpt><trkpt lat="45.1436969" lon="10.7930172"><ele>19.0</ele><time>2026-03-29T17:03:04.775Z</time></trkpt><trkpt lat="45.1437309" lon="10.7929221"><ele>19.0</ele><time>2026-03-29T17:03:06.775Z</time></trkpt><trkpt lat="45.1437549" lon="10.7928319"><ele>19.0</ele><time>2026-03-29T17:03:08.776Z</time></trkpt><trkpt lat="45.1437841" lon="10.7927325"><ele>19.0</ele><time>2026-03-29T17:03:10.775Z</time></trkpt><trkpt lat="45.1438277" lon="10.7926442"><ele>19.0</ele><time>2026-03-29T17:03:12.776Z</time></trkpt><trkpt lat="45.1438649" lon="10.7925566"><ele>19.0</ele><time>2026-03-29T17:03:14.776Z</time></trkpt><trkpt lat="45.1438934" lon="10.792455"><ele>19.0</ele><time>2026-03-29T17:03:16.776Z</time></trkpt><trkpt lat="45.1439261" lon="10.7923476"><ele>18.833333333333332</ele><time>2026-03-29T17:03:18.775Z</time></trkpt><trkpt lat="45.1439609" lon="10.7922444"><ele>18.666666666666664</ele><time>2026-03-29T17:03:20.775Z</time></trkpt><trkpt lat="45.1440007" lon="10.7921319"><ele>18.5</ele><time>2026-03-29T17:03:22.776Z</time></trkpt><trkpt lat="45.1440405" lon="10.7920079"><ele>18.333333333333332</ele><time>2026-03-29T17:03:24.774Z</time></trkpt><trkpt lat="45.1440704" lon="10.7918881"><ele>18.166666666666668</ele><time>2026-03-29T17:03:26.776Z</time></trkpt><trkpt lat="45.1441084" lon="10.7917792"><ele>18.0</ele><time>2026-03-29T17:03:28.775Z</time></trkpt><trkpt lat="45.1441523" lon="10.7916696"><ele>17.833333333333332</ele><time>2026-03-29T17:03:30.775Z</time></trkpt><trkpt lat="45.1441737" lon="10.7915625"><ele>17.666666666666668</ele><time>2026-03-29T17:03:32.775Z</time></trkpt><trkpt lat="45.1442032" lon="10.7914605"><ele>17.5</ele><time>2026-03-29T17:03:34.776Z</time></trkpt><trkpt lat="45.1442446" lon="10.7913642"><ele>17.333333333333336</ele><time>2026-03-29T17:03:36.774Z</time></trkpt><trkpt lat="45.1442664" lon="10.7912427"><ele>17.166666666666668</ele><time>2026-03-29T17:03:38.774Z</time></trkpt><trkpt lat="45.1442911" lon="10.791128"><ele>17.0</ele><time>2026-03-29T17:03:40.775Z</time></trkpt><trkpt lat="45.1443209" lon="10.7910193"><ele>17.0</ele><time>2026-03-29T17:03:42.776Z</time></trkpt><trkpt lat="45.1443516" lon="10.7909217"><ele>17.0</ele><time>2026-03-29T17:03:44.775Z</time></trkpt><trkpt lat="45.1443695" lon="10.7908006"><ele>17.0</ele><time>2026-03-29T17:03:46.775Z</time></trkpt><trkpt lat="45.1443652" lon="10.7906741"><ele>17.0</ele><time>2026-03-29T17:03:48.775Z</time></trkpt><trkpt lat="45.1443917" lon="10.7905656"><ele>17.0</ele><time>2026-03-29T17:03:50.775Z</time></trkpt><trkpt lat="45.1444251" lon="10.7904505"><ele>17.0</ele><time>2026-03-29T17:03:52.774Z</time></trkpt><trkpt lat="45.1444575" lon="10.7903434"><ele>17.0</ele><time>2026-03-29T17:03:54.775Z</time></trkpt><trkpt lat="45.144493" lon="10.7902465"><ele>17.0</ele><time>2026-03-29T17:03:56.774Z</time></trkpt><trkpt lat="45.1445205" lon="10.790145"><ele>17.0</ele><time>2026-03-29T17:03:58.775Z</time></trkpt><trkpt lat="45.1445507" lon="10.7900381"><ele>17.0</ele><time>2026-03-29T17:04:00.776Z</time></trkpt><trkpt lat="45.1445701" lon="10.7899274"><ele>17.0</ele><time>2026-03-29T17:04:02.774Z</time></trkpt><trkpt lat="45.1445972" lon="10.789814"><ele>17.0</ele><time>2026-03-29T17:04:04.774Z</time></trkpt><trkpt lat="45.144632" lon="10.7897125"><ele>17.166666666666668</ele><time>2026-03-29T17:04:06.776Z</time></trkpt><trkpt lat="45.1446634" lon="10.7896205"><ele>17.333333333333336</ele><time>2026-03-29T17:04:08.775Z</time></trkpt><trkpt lat="45.1446902" lon="10.7895111"><ele>17.5</ele><time>2026-03-29T17:04:10.774Z</time></trkpt><trkpt lat="45.1447179" lon="10.7894071"><ele>17.666666666666668</ele><time>2026-03-29T17:04:12.774Z</time></trkpt><trkpt lat="45.1447462" lon="10.7893047"><ele>17.833333333333332</ele><time>2026-03-29T17:04:14.774Z</time></trkpt><trkpt lat="45.1447694" lon="10.7892013"><ele>18.0</ele><time>2026-03-29T17:04:16.775Z</time></trkpt><trkpt lat="45.144799" lon="10.789089"><ele>18.0</ele><time>2026-03-29T17:04:18.774Z</time></trkpt><trkpt lat="45.1448287" lon="10.7889811"><ele>18.0</ele><time>2026-03-29T17:04:20.775Z</time></trkpt><trkpt lat="45.1448609" lon="10.7888721"><ele>18.0</ele><time>2026-03-29T17:04:22.775Z</time></trkpt><trkpt lat="45.144892" lon="10.7887608"><ele>18.0</ele><time>2026-03-29T17:04:24.776Z</time></trkpt><trkpt lat="45.1449207" lon="10.7886488"><ele>18.0</ele><time>2026-03-29T17:04:26.775Z</time></trkpt><trkpt lat="45.1449515" lon="10.7885373"><ele>18.0</ele><time>2026-03-29T17:04:28.774Z</time></trkpt><trkpt lat="45.1449767" lon="10.7884305"><ele>18.166666666666668</ele><time>2026-03-29T17:04:30.775Z</time></trkpt><trkpt lat="45.1450072" lon="10.7883213"><ele>18.333333333333332</ele><time>2026-03-29T17:04:32.775Z</time></trkpt><trkpt lat="45.1450386" lon="10.7882169"><ele>18.5</ele><time>2026-03-29T17:04:34.774Z</time></trkpt><trkpt lat="45.1450707" lon="10.7881148"><ele>18.666666666666664</ele><time>2026-03-29T17:04:36.775Z</time></trkpt><trkpt lat="45.1451016" lon="10.78801"><ele>18.833333333333332</ele><time>2026-03-29T17:04:38.775Z</time></trkpt><trkpt lat="45.1451286" lon="10.7879012"><ele>19.0</ele><time>2026-03-29T17:04:40.776Z</time></trkpt><trkpt lat="45.1451641" lon="10.7877987"><ele>19.0</ele><time>2026-03-29T17:04:42.775Z</time></trkpt><trkpt lat="45.145196" lon="10.7876944"><ele>19.0</ele><time>2026-03-29T17:04:44.776Z</time></trkpt><trkpt lat="45.1452271" lon="10.7875957"><ele>19.0</ele><time>2026-03-29T17:04:46.775Z</time></trkpt><trkpt lat="45.1452568" lon="10.7874973"><ele>19.0</ele><time>2026-03-29T17:04:48.776Z</time></trkpt><trkpt lat="45.1452847" lon="10.7873925"><ele>19.0</ele><time>2026-03-29T17:04:50.774Z</time></trkpt><trkpt lat="45.1453145" lon="10.7872842"><ele>19.0</ele><time>2026-03-29T17:04:52.775Z</time></trkpt><trkpt lat="45.1453432" lon="10.7871756"><ele>18.833333333333332</ele><time>2026-03-29T17:04:54.775Z</time></trkpt><trkpt lat="45.1453711" lon="10.7870702"><ele>18.666666666666664</ele><time>2026-03-29T17:04:56.776Z</time></trkpt><trkpt lat="45.1454049" lon="10.7869638"><ele>18.5</ele><time>2026-03-29T17:04:58.775Z</time></trkpt><trkpt lat="45.1454335" lon="10.7868488"><ele>18.333333333333332</ele><time>2026-03-29T17:05:00.774Z</time></trkpt><trkpt lat="45.1454597" lon="10.7867356"><ele>18.166666666666668</ele><time>2026-03-29T17:05:02.775Z</time></trkpt><trkpt lat="45.1454849" lon="10.7866193"><ele>18.0</ele><time>2026-03-29T17:05:04.774Z</time></trkpt><trkpt lat="45.1455223" lon="10.7865014"><ele>18.0</ele><time>2026-03-29T17:05:06.775Z</time></trkpt><trkpt lat="45.145558" lon="10.7863915"><ele>18.0</ele><time>2026-03-29T17:05:08.776Z</time></trkpt><trkpt lat="45.1455902" lon="10.7862785"><ele>18.0</ele><time>2026-03-29T17:05:10.775Z</time></trkpt><trkpt lat="45.1456198" lon="10.7861635"><ele>18.0</ele><time>2026-03-29T17:05:12.776Z</time></trkpt><trkpt lat="45.1456514" lon="10.7860535"><ele>18.0</ele><time>2026-03-29T17:05:14.775Z</time></trkpt><trkpt lat="45.145682" lon="10.7859457"><ele>18.0</ele><time>2026-03-29T17:05:16.775Z</time></trkpt><trkpt lat="45.1457122" lon="10.7858301"><ele>18.333333333333332</ele><time>2026-03-29T17:05:18.775Z</time></trkpt><trkpt lat="45.145744" lon="10.7857031"><ele>18.666666666666668</ele><time>2026-03-29T17:05:20.775Z</time></trkpt><trkpt lat="45.1457721" lon="10.7855874"><ele>19.0</ele><time>2026-03-29T17:05:22.776Z</time></trkpt><trkpt lat="45.1458074" lon="10.785482"><ele>19.333333333333336</ele><time>2026-03-29T17:05:24.775Z</time></trkpt><trkpt lat="45.1458308" lon="10.7853681"><ele>19.666666666666668</ele><time>2026-03-29T17:05:26.776Z</time></trkpt><trkpt lat="45.1458583" lon="10.7852606"><ele>20.0</ele><time>2026-03-29T17:05:28.775Z</time></trkpt><trkpt lat="45.1458936" lon="10.7851505"><ele>20.0</ele><time>2026-03-29T17:05:30.774Z</time></trkpt><trkpt lat="45.1459214" lon="10.7850329"><ele>20.0</ele><time>2026-03-29T17:05:32.775Z</time></trkpt><trkpt lat="45.1459549" lon="10.7849091"><ele>20.0</ele><time>2026-03-29T17:05:34.775Z</time></trkpt><trkpt lat="45.1459893" lon="10.7847941"><ele>20.0</ele><time>2026-03-29T17:05:36.775Z</time></trkpt><trkpt lat="45.1460229" lon="10.784681"><ele>20.0</ele><time>2026-03-29T17:05:38.774Z</time></trkpt><trkpt lat="45.1460513" lon="10.7845564"><ele>20.0</ele><time>2026-03-29T17:05:40.775Z</time></trkpt><trkpt lat="45.1460873" lon="10.7844478"><ele>20.0</ele><time>2026-03-29T17:05:42.776Z</time></trkpt><trkpt lat="45.1461135" lon="10.7843465"><ele>20.0</ele><time>2026-03-29T17:05:44.774Z</time></trkpt><trkpt lat="45.1461099" lon="10.7842339"><ele>20.0</ele><time>2026-03-29T17:05:46.775Z</time></trkpt><trkpt lat="45.1460995" lon="10.7841293"><ele>20.0</ele><time>2026-03-29T17:05:48.775Z</time></trkpt><trkpt lat="45.1460863" lon="10.7840222"><ele>20.0</ele><time>2026-03-29T17:05:50.775Z</time></trkpt><trkpt lat="45.1460751" lon="10.783923"><ele>20.0</ele><time>2026-03-29T17:05:52.776Z</time></trkpt><trkpt lat="45.14606" lon="10.7838235"><ele>20.0</ele><time>2026-03-29T17:05:54.776Z</time></trkpt><trkpt lat="45.1460445" lon="10.7837269"><ele>19.833333333333336</ele><time>2026-03-29T17:05:56.775Z</time></trkpt><trkpt lat="45.1460282" lon="10.7836215"><ele>19.666666666666668</ele><time>2026-03-29T17:05:58.775Z</time></trkpt><trkpt lat="45.1460101" lon="10.78351"><ele>19.5</ele><time>2026-03-29T17:06:00.775Z</time></trkpt><trkpt lat="45.145987" lon="10.783396"><ele>19.333333333333332</ele><time>2026-03-29T17:06:02.775Z</time></trkpt><trkpt lat="45.1459665" lon="10.7832855"><ele>19.166666666666664</ele><time>2026-03-29T17:06:04.774Z</time></trkpt><trkpt lat="45.1459471" lon="10.7831743"><ele>19.0</ele><time>2026-03-29T17:06:06.776Z</time></trkpt><trkpt lat="45.1459261" lon="10.7830651"><ele>18.857142857142858</ele><time>2026-03-29T17:06:08.775Z</time></trkpt><trkpt lat="45.1458795" lon="10.7829754"><ele>18.714285714285715</ele><time>2026-03-29T17:06:10.774Z</time></trkpt><trkpt lat="45.1458133" lon="10.7829402"><ele>18.571428571428573</ele><time>2026-03-29T17:06:12.775Z</time></trkpt><trkpt lat="45.1457418" lon="10.7829252"><ele>18.42857142857143</ele><time>2026-03-29T17:06:14.775Z</time></trkpt><trkpt lat="45.1456803" lon="10.7828998"><ele>18.285714285714285</ele><time>2026-03-29T17:06:17.775Z</time></trkpt><trkpt lat="45.1456552" lon="10.7828045"><ele>18.142857142857146</ele><time>2026-03-29T17:06:26.775Z</time></trkpt><trkpt lat="45.1457013" lon="10.7827155"><ele>18.0</ele><time>2026-03-29T17:06:29.776Z</time></trkpt><trkpt lat="45.1457746" lon="10.7827053"><ele>17.833333333333332</ele><time>2026-03-29T17:06:31.776Z</time></trkpt><trkpt lat="45.1458547" lon="10.7827199"><ele>17.666666666666668</ele><time>2026-03-29T17:06:33.776Z</time></trkpt><trkpt lat="45.1459313" lon="10.782747"><ele>17.5</ele><time>2026-03-29T17:06:35.775Z</time></trkpt><trkpt lat="45.1460065" lon="10.7827916"><ele>17.333333333333336</ele><time>2026-03-29T17:06:37.776Z</time></trkpt><trkpt lat="45.1460745" lon="10.7828027"><ele>17.166666666666668</ele><time>2026-03-29T17:06:39.775Z</time></trkpt><trkpt lat="45.1461296" lon="10.7827215"><ele>17.0</ele><time>2026-03-29T17:06:41.775Z</time></trkpt><trkpt lat="45.1461524" lon="10.7826019"><ele>16.666666666666668</ele><time>2026-03-29T17:06:43.776Z</time></trkpt><trkpt lat="45.1461856" lon="10.7824856"><ele>16.333333333333336</ele><time>2026-03-29T17:06:45.775Z</time></trkpt><trkpt lat="45.1462188" lon="10.7823714"><ele>16.0</ele><time>2026-03-29T17:06:47.775Z</time></trkpt><trkpt lat="45.1462499" lon="10.7822597"><ele>15.666666666666668</ele><time>2026-03-29T17:06:49.775Z</time></trkpt><trkpt lat="45.1462749" lon="10.7821472"><ele>15.333333333333334</ele><time>2026-03-29T17:06:51.775Z</time></trkpt><trkpt lat="45.1462985" lon="10.7820382"><ele>15.0</ele><time>2026-03-29T17:06:53.775Z</time></trkpt><trkpt lat="45.1463259" lon="10.7819237"><ele>15.0</ele><time>2026-03-29T17:06:55.775Z</time></trkpt><trkpt lat="45.1463458" lon="10.7818045"><ele>15.0</ele><time>2026-03-29T17:06:57.775Z</time></trkpt><trkpt lat="45.1463621" lon="10.7816825"><ele>15.0</ele><time>2026-03-29T17:06:59.775Z</time></trkpt><trkpt lat="45.1463924" lon="10.7815587"><ele>15.0</ele><time>2026-03-29T17:07:01.775Z</time></trkpt><trkpt lat="45.1464239" lon="10.7814409"><ele>15.0</ele><time>2026-03-29T17:07:03.776Z</time></trkpt><trkpt lat="45.1464516" lon="10.7813185"><ele>15.0</ele><time>2026-03-29T17:07:05.774Z</time></trkpt><trkpt lat="45.1464759" lon="10.7811989"><ele>15.0</ele><time>2026-03-29T17:07:07.776Z</time></trkpt><trkpt lat="45.1465036" lon="10.7810879"><ele>15.0</ele><time>2026-03-29T17:07:09.774Z</time></trkpt><trkpt lat="45.1465556" lon="10.7809838"><ele>15.0</ele><time>2026-03-29T17:07:11.774Z</time></trkpt><trkpt lat="45.1466186" lon="10.7808971"><ele>15.0</ele><time>2026-03-29T17:07:13.775Z</time></trkpt><trkpt lat="45.1466532" lon="10.7807875"><ele>15.0</ele><time>2026-03-29T17:07:15.775Z</time></trkpt><trkpt lat="45.1466806" lon="10.7806669"><ele>15.0</ele><time>2026-03-29T17:07:17.774Z</time></trkpt><trkpt lat="45.14671" lon="10.7805491"><ele>15.2</ele><time>2026-03-29T17:07:19.776Z</time></trkpt><trkpt lat="45.1467422" lon="10.7804284"><ele>15.4</ele><time>2026-03-29T17:07:21.775Z</time></trkpt><trkpt lat="45.1467653" lon="10.7803007"><ele>15.600000000000001</ele><time>2026-03-29T17:07:23.775Z</time></trkpt><trkpt lat="45.1467935" lon="10.7801778"><ele>15.8</ele><time>2026-03-29T17:07:25.774Z</time></trkpt><trkpt lat="45.1468222" lon="10.780057"><ele>16.0</ele><time>2026-03-29T17:07:27.775Z</time></trkpt><trkpt lat="45.1468677" lon="10.7799495"><ele>15.999999999999998</ele><time>2026-03-29T17:07:29.775Z</time></trkpt><trkpt lat="45.1469229" lon="10.7798576"><ele>16.0</ele><time>2026-03-29T17:07:31.774Z</time></trkpt><trkpt lat="45.1469712" lon="10.779768"><ele>16.0</ele><time>2026-03-29T17:07:33.775Z</time></trkpt><trkpt lat="45.1469989" lon="10.7796591"><ele>16.0</ele><time>2026-03-29T17:07:35.775Z</time></trkpt><trkpt lat="45.147015" lon="10.7795462"><ele>15.999999999999998</ele><time>2026-03-29T17:07:37.775Z</time></trkpt><trkpt lat="45.1470347" lon="10.7794366"><ele>16.0</ele><time>2026-03-29T17:07:39.774Z</time></trkpt><trkpt lat="45.1470428" lon="10.7793328"><ele>16.333333333333332</ele><time>2026-03-29T17:07:41.776Z</time></trkpt><trkpt lat="45.1470604" lon="10.7792377"><ele>16.666666666666664</ele><time>2026-03-29T17:07:43.775Z</time></trkpt><trkpt lat="45.147074" lon="10.7791332"><ele>17.0</ele><time>2026-03-29T17:07:45.775Z</time></trkpt><trkpt lat="45.1470919" lon="10.7790279"><ele>17.333333333333332</ele><time>2026-03-29T17:07:47.774Z</time></trkpt><trkpt lat="45.147107" lon="10.7789167"><ele>17.666666666666668</ele><time>2026-03-29T17:07:49.774Z</time></trkpt><trkpt lat="45.1471281" lon="10.7788063"><ele>18.0</ele><time>2026-03-29T17:07:51.775Z</time></trkpt><trkpt lat="45.1471458" lon="10.7787009"><ele>18.000000000000004</ele><time>2026-03-29T17:07:53.774Z</time></trkpt><trkpt lat="45.1471612" lon="10.7785985"><ele>18.0</ele><time>2026-03-29T17:07:55.775Z</time></trkpt><trkpt lat="45.1471702" lon="10.7784969"><ele>18.0</ele><time>2026-03-29T17:07:57.775Z</time></trkpt><trkpt lat="45.1471602" lon="10.7784008"><ele>18.0</ele><time>2026-03-29T17:07:59.773Z</time></trkpt><trkpt lat="45.1471736" lon="10.7783083"><ele>18.0</ele><time>2026-03-29T17:08:01.775Z</time></trkpt><trkpt lat="45.1471904" lon="10.7782136"><ele>18.000000000000004</ele><time>2026-03-29T17:08:03.776Z</time></trkpt><trkpt lat="45.1471989" lon="10.7781103"><ele>18.0</ele><time>2026-03-29T17:08:05.773Z</time></trkpt><trkpt lat="45.1472078" lon="10.7780034"><ele>17.833333333333332</ele><time>2026-03-29T17:08:07.776Z</time></trkpt><trkpt lat="45.147216" lon="10.7778991"><ele>17.666666666666668</ele><time>2026-03-29T17:08:09.776Z</time></trkpt><trkpt lat="45.1471925" lon="10.7777915"><ele>17.5</ele><time>2026-03-29T17:08:11.775Z</time></trkpt><trkpt lat="45.1471464" lon="10.7776982"><ele>17.333333333333336</ele><time>2026-03-29T17:08:13.774Z</time></trkpt><trkpt lat="45.1470918" lon="10.7776114"><ele>17.166666666666668</ele><time>2026-03-29T17:08:15.775Z</time></trkpt><trkpt lat="45.1470375" lon="10.7775252"><ele>17.0</ele><time>2026-03-29T17:08:17.774Z</time></trkpt><trkpt lat="45.1469843" lon="10.777436"><ele>17.0</ele><time>2026-03-29T17:08:19.775Z</time></trkpt><trkpt lat="45.1469313" lon="10.7773468"><ele>17.0</ele><time>2026-03-29T17:08:21.775Z</time></trkpt><trkpt lat="45.1468753" lon="10.7772553"><ele>17.0</ele><time>2026-03-29T17:08:23.775Z</time></trkpt><trkpt lat="45.1468214" lon="10.7771649"><ele>17.0</ele><time>2026-03-29T17:08:25.774Z</time></trkpt><trkpt lat="45.1468013" lon="10.7770588"><ele>17.0</ele><time>2026-03-29T17:08:27.775Z</time></trkpt><trkpt lat="45.1468505" lon="10.7769703"><ele>17.0</ele><time>2026-03-29T17:08:29.775Z</time></trkpt><trkpt lat="45.1469155" lon="10.7768923"><ele>16.999999999999996</ele><time>2026-03-29T17:08:31.773Z</time></trkpt><trkpt lat="45.1469812" lon="10.7768186"><ele>17.0</ele><time>2026-03-29T17:08:33.775Z</time></trkpt><trkpt lat="45.1470409" lon="10.7767463"><ele>17.0</ele><time>2026-03-29T17:08:35.775Z</time></trkpt><trkpt lat="45.1470958" lon="10.7766765"><ele>17.0</ele><time>2026-03-29T17:08:37.775Z</time></trkpt><trkpt lat="45.1471522" lon="10.7766099"><ele>17.0</ele><time>2026-03-29T17:08:39.774Z</time></trkpt><trkpt lat="45.1471961" lon="10.7765349"><ele>16.999999999999996</ele><time>2026-03-29T17:08:41.776Z</time></trkpt><trkpt lat="45.1472565" lon="10.7764824"><ele>17.0</ele><time>2026-03-29T17:08:43.775Z</time></trkpt><trkpt lat="45.1473083" lon="10.7764159"><ele>16.999999999999996</ele><time>2026-03-29T17:08:45.775Z</time></trkpt><trkpt lat="45.1473575" lon="10.776335"><ele>17.0</ele><time>2026-03-29T17:08:47.776Z</time></trkpt><trkpt lat="45.1474016" lon="10.7762447"><ele>17.0</ele><time>2026-03-29T17:08:49.773Z</time></trkpt><trkpt lat="45.1474542" lon="10.7761634"><ele>17.0</ele><time>2026-03-29T17:08:51.775Z</time></trkpt><trkpt lat="45.1475067" lon="10.7760884"><ele>17.0</ele><time>2026-03-29T17:08:53.774Z</time></trkpt><trkpt lat="45.1475419" lon="10.7760102"><ele>16.999999999999996</ele><time>2026-03-29T17:08:55.775Z</time></trkpt><trkpt lat="45.1475816" lon="10.7759304"><ele>17.0</ele><time>2026-03-29T17:08:57.775Z</time></trkpt><trkpt lat="45.1476205" lon="10.7758522"><ele>17.57142857142857</ele><time>2026-03-29T17:08:59.775Z</time></trkpt><trkpt lat="45.1476635" lon="10.7757758"><ele>18.142857142857142</ele><time>2026-03-29T17:09:01.774Z</time></trkpt><trkpt lat="45.1477059" lon="10.775699"><ele>18.714285714285715</ele><time>2026-03-29T17:09:03.775Z</time></trkpt><trkpt lat="45.1477484" lon="10.7756265"><ele>19.285714285714285</ele><time>2026-03-29T17:09:05.775Z</time></trkpt><trkpt lat="45.1477877" lon="10.7755547"><ele>19.857142857142858</ele><time>2026-03-29T17:09:07.776Z</time></trkpt><trkpt lat="45.1478274" lon="10.7754807"><ele>20.428571428571427</ele><time>2026-03-29T17:09:09.774Z</time></trkpt><trkpt lat="45.1478698" lon="10.7754054"><ele>21.0</ele><time>2026-03-29T17:09:11.776Z</time></trkpt><trkpt lat="45.14791" lon="10.7753348"><ele>21.0</ele><time>2026-03-29T17:09:13.774Z</time></trkpt><trkpt lat="45.1479926" lon="10.7753482"><ele>21.0</ele><time>2026-03-29T17:09:16.774Z</time></trkpt><trkpt lat="45.148062" lon="10.7754232"><ele>21.0</ele><time>2026-03-29T17:09:19.775Z</time></trkpt><trkpt lat="45.1481418" lon="10.7754576"><ele>21.0</ele><time>2026-03-29T17:09:23.695Z</time></trkpt></trkseg></trk></gpx>